<?xml version="1.0" encoding="UTF-8" standalone="no" ?>
<gpx xmlns="http://www.topografix.com/GPX/1/1" creator="MapSource 6.16.3" version="1.1" xmlns:xsi="http://www.w3.org/2001/XMLSchema-instance" xsi:schemaLocation="http://www.topografix.com/GPX/1/1 http://www.topografix.com/GPX/1/1/gpx.xsd">

  <metadata>
    <link href="http://www.garmin.com">
      <text>Garmin International</text>
    </link>
    <time>2016-09-07T05:30:46Z</time>
    <bounds maxlat="44.465360641479492" maxlon="11.462001800537109" minlat="44.359316825866699" minlon="11.398379802703857"/>
  </metadata>

  <trk>
    <name>ACTIVE LOG</name>
    <trkseg>
      <trkpt lat="44.465317726135254" lon="11.398379802703857">
        <ele>68</ele>
        <time>2004-07-29T17:07:46Z</time>
      </trkpt>
      <trkpt lat="44.464652538299561" lon="11.399431228637695">
        <ele>71</ele>
        <time>2004-07-29T17:08:05Z</time>
      </trkpt>
      <trkpt lat="44.464223384857178" lon="11.400246620178223">
        <ele>70</ele>
        <time>2004-07-29T17:08:22Z</time>
      </trkpt>
      <trkpt lat="44.463815689086914" lon="11.400976181030273">
        <ele>68</ele>
        <time>2004-07-29T17:08:35Z</time>
      </trkpt>
      <trkpt lat="44.463214874267578" lon="11.401855861768126">
        <ele>67</ele>
        <time>2004-07-29T17:08:49Z</time>
      </trkpt>
      <trkpt lat="44.46291446685791" lon="11.402456760406494">
        <ele>65</ele>
        <time>2004-07-29T17:09:02Z</time>
      </trkpt>
      <trkpt lat="44.46265697479248" lon="11.402971660718322">
        <ele>66</ele>
        <time>2004-07-29T17:13:20Z</time>
      </trkpt>
      <trkpt lat="44.462378025054932" lon="11.403465270996094">
        <ele>68</ele>
        <time>2004-07-29T17:13:33Z</time>
      </trkpt>
      <trkpt lat="44.462056159973145" lon="11.403722763061523">
        <ele>70</ele>
        <time>2004-07-29T17:13:43Z</time>
      </trkpt>
      <trkpt lat="44.461154937744141" lon="11.404109001159668">
        <ele>73</ele>
        <time>2004-07-29T17:14:05Z</time>
      </trkpt>
      <trkpt lat="44.460318088531494" lon="11.404645359143615">
        <ele>75</ele>
        <time>2004-07-29T17:14:23Z</time>
      </trkpt>
      <trkpt lat="44.459438323974609" lon="11.405267715454102">
        <ele>75</ele>
        <time>2004-07-29T17:14:41Z</time>
      </trkpt>
      <trkpt lat="44.458065032958984" lon="11.40554666519165">
        <ele>75</ele>
        <time>2004-07-29T17:15:02Z</time>
      </trkpt>
      <trkpt lat="44.456348419189453" lon="11.405911361798644">
        <ele>75</ele>
        <time>2004-07-29T17:15:29Z</time>
      </trkpt>
      <trkpt lat="44.455275535583496" lon="11.406126022338867">
        <ele>74</ele>
        <time>2004-07-29T17:15:46Z</time>
      </trkpt>
      <trkpt lat="44.45418119430542" lon="11.406469261273742">
        <ele>74</ele>
        <time>2004-07-29T17:16:04Z</time>
      </trkpt>
      <trkpt lat="44.452743530273438" lon="11.407177364453673">
        <ele>75</ele>
        <time>2004-07-29T17:16:28Z</time>
      </trkpt>
      <trkpt lat="44.451713562011719" lon="11.407349109649658">
        <ele>77</ele>
        <time>2004-07-29T17:16:46Z</time>
      </trkpt>
      <trkpt lat="44.451327323913574" lon="11.407456398010254">
        <ele>77</ele>
        <time>2004-07-29T17:16:54Z</time>
      </trkpt>
      <trkpt lat="44.451198577880859" lon="11.407713890075684">
        <ele>78</ele>
        <time>2004-07-29T17:16:59Z</time>
      </trkpt>
      <trkpt lat="44.451112663373351" lon="11.408078670501709">
        <ele>79</ele>
        <time>2004-07-29T17:17:04Z</time>
      </trkpt>
      <trkpt lat="44.451026916503906" lon="11.409473419189453">
        <ele>80</ele>
        <time>2004-07-29T17:17:22Z</time>
      </trkpt>
      <trkpt lat="44.450919628143311" lon="11.411640560254455">
        <ele>78</ele>
        <time>2004-07-29T17:17:46Z</time>
      </trkpt>
      <trkpt lat="44.450769424438477" lon="11.413850784301758">
        <ele>77</ele>
        <time>2004-07-29T17:18:08Z</time>
      </trkpt>
      <trkpt lat="44.450898170471191" lon="11.415438735857606">
        <ele>73</ele>
        <time>2004-07-29T17:18:23Z</time>
      </trkpt>
      <trkpt lat="44.45143461227417" lon="11.416640281677246">
        <ele>71</ele>
        <time>2004-07-29T17:18:36Z</time>
      </trkpt>
      <trkpt lat="44.452550411224365" lon="11.418271064758301">
        <ele>70</ele>
        <time>2004-07-29T17:18:58Z</time>
      </trkpt>
      <trkpt lat="44.453666210174561" lon="11.419880390167236">
        <ele>68</ele>
        <time>2004-07-29T17:19:20Z</time>
      </trkpt>
      <trkpt lat="44.454653263092041" lon="11.421575462445617">
        <ele>66</ele>
        <time>2004-07-29T17:19:42Z</time>
      </trkpt>
      <trkpt lat="44.455017959699035" lon="11.422498226165771">
        <ele>66</ele>
        <time>2004-07-29T17:19:53Z</time>
      </trkpt>
      <trkpt lat="44.454975128173828" lon="11.423056125640869">
        <ele>65</ele>
        <time>2004-07-29T17:19:59Z</time>
      </trkpt>
      <trkpt lat="44.454824924468994" lon="11.423335075378418">
        <ele>65</ele>
        <time>2004-07-29T17:20:03Z</time>
      </trkpt>
      <trkpt lat="44.453494464978576" lon="11.42453670501709">
        <ele>65</ele>
        <time>2004-07-29T17:20:27Z</time>
      </trkpt>
      <trkpt lat="44.452357292175293" lon="11.425244808197021">
        <ele>66</ele>
        <time>2004-07-29T17:20:46Z</time>
      </trkpt>
      <trkpt lat="44.451413238421082" lon="11.425759792327881">
        <ele>67</ele>
        <time>2004-07-29T17:21:02Z</time>
      </trkpt>
      <trkpt lat="44.450254440307617" lon="11.426939964294434">
        <ele>66</ele>
        <time>2004-07-29T17:21:23Z</time>
      </trkpt>
      <trkpt lat="44.449481964111328" lon="11.42777681350708">
        <ele>66</ele>
        <time>2004-07-29T17:21:37Z</time>
      </trkpt>
      <trkpt lat="44.449310302734375" lon="11.428184509277344">
        <ele>65</ele>
        <time>2004-07-29T17:21:42Z</time>
      </trkpt>
      <trkpt lat="44.448795318603516" lon="11.430072784423828">
        <ele>62</ele>
        <time>2004-07-29T17:22:02Z</time>
      </trkpt>
      <trkpt lat="44.448237419128418" lon="11.432197093963623">
        <ele>60</ele>
        <time>2004-07-29T17:22:24Z</time>
      </trkpt>
      <trkpt lat="44.448022758588195" lon="11.432368839159608">
        <ele>60</ele>
        <time>2004-07-29T17:22:28Z</time>
      </trkpt>
      <trkpt lat="44.447572231292725" lon="11.432368839159608">
        <ele>60</ele>
        <time>2004-07-29T17:22:35Z</time>
      </trkpt>
      <trkpt lat="44.447250366210937" lon="11.432669162750244">
        <ele>59</ele>
        <time>2004-07-29T17:22:41Z</time>
      </trkpt>
      <trkpt lat="44.44669246673584" lon="11.434793472290039">
        <ele>58</ele>
        <time>2004-07-29T17:23:04Z</time>
      </trkpt>
      <trkpt lat="44.446563720703125" lon="11.435136795043945">
        <ele>58</ele>
        <time>2004-07-29T17:23:08Z</time>
      </trkpt>
      <trkpt lat="44.446284770965576" lon="11.43526554107666">
        <ele>58</ele>
        <time>2004-07-29T17:23:13Z</time>
      </trkpt>
      <trkpt lat="44.445919990539551" lon="11.435007965192199">
        <ele>59</ele>
        <time>2004-07-29T17:23:20Z</time>
      </trkpt>
      <trkpt lat="44.445340633392334" lon="11.435050964355469">
        <ele>59</ele>
        <time>2004-07-29T17:23:33Z</time>
      </trkpt>
      <trkpt lat="44.444954395294189" lon="11.435115337371826">
        <ele>61</ele>
        <time>2004-07-29T17:23:45Z</time>
      </trkpt>
      <trkpt lat="44.444761276245117" lon="11.435179710388184">
        <ele>65</ele>
        <time>2004-07-29T17:23:52Z</time>
      </trkpt>
      <trkpt lat="44.444589614868164" lon="11.435222625732422">
        <ele>67</ele>
        <time>2004-07-29T17:24:00Z</time>
      </trkpt>
      <trkpt lat="44.444546699523926" lon="11.435244083404541">
        <ele>68</ele>
        <time>2004-07-29T17:24:02Z</time>
      </trkpt>
      <trkpt lat="44.444503784179688" lon="11.435201168060303">
        <ele>70</ele>
        <time>2004-07-29T17:24:14Z</time>
      </trkpt>
      <trkpt lat="44.444482326507568" lon="11.435179710388184">
        <ele>71</ele>
        <time>2004-07-29T17:24:30Z</time>
      </trkpt>
      <trkpt lat="44.444396495819092" lon="11.435201168060303">
        <ele>73</ele>
        <time>2004-07-29T17:24:44Z</time>
      </trkpt>
      <trkpt lat="44.444224834442139" lon="11.434965133666992">
        <ele>73</ele>
        <time>2004-07-29T17:24:58Z</time>
      </trkpt>
      <trkpt lat="44.443838596343994" lon="11.434493064880371">
        <ele>75</ele>
        <time>2004-07-29T17:25:16Z</time>
      </trkpt>
      <trkpt lat="44.443645477294922" lon="11.434257030487061">
        <ele>75</ele>
        <time>2004-07-29T17:25:24Z</time>
      </trkpt>
      <trkpt lat="44.443259239196777" lon="11.434364318847656">
        <ele>72</ele>
        <time>2004-07-29T17:25:31Z</time>
      </trkpt>
      <trkpt lat="44.443173408508301" lon="11.434535980224609">
        <ele>69</ele>
        <time>2004-07-29T17:25:33Z</time>
      </trkpt>
      <trkpt lat="44.443001663312316" lon="11.434750640764832">
        <ele>67</ele>
        <time>2004-07-29T17:25:37Z</time>
      </trkpt>
      <trkpt lat="44.442873001098633" lon="11.434707641601563">
        <ele>67</ele>
        <time>2004-07-29T17:25:41Z</time>
      </trkpt>
      <trkpt lat="44.442679882049561" lon="11.434621810913086">
        <ele>69</ele>
        <time>2004-07-29T17:25:47Z</time>
      </trkpt>
      <trkpt lat="44.442164897918701" lon="11.434321403503418">
        <ele>73</ele>
        <time>2004-07-29T17:26:03Z</time>
      </trkpt>
      <trkpt lat="44.441649913787842" lon="11.434149658307433">
        <ele>76</ele>
        <time>2004-07-29T17:26:16Z</time>
      </trkpt>
      <trkpt lat="44.44094181060791" lon="11.433699131011963">
        <ele>79</ele>
        <time>2004-07-29T17:26:37Z</time>
      </trkpt>
      <trkpt lat="44.440469741821289" lon="11.433248519897461">
        <ele>82</ele>
        <time>2004-07-29T17:26:52Z</time>
      </trkpt>
      <trkpt lat="44.439826011657715" lon="11.432733535766602">
        <ele>85</ele>
        <time>2004-07-29T17:27:10Z</time>
      </trkpt>
      <trkpt lat="44.439160823822021" lon="11.4322829246521">
        <ele>86</ele>
        <time>2004-07-29T17:27:28Z</time>
      </trkpt>
      <trkpt lat="44.438602924346924" lon="11.43181093968451">
        <ele>88</ele>
        <time>2004-07-29T17:27:44Z</time>
      </trkpt>
      <trkpt lat="44.437766075134277" lon="11.431403160095215">
        <ele>84</ele>
        <time>2004-07-29T17:27:59Z</time>
      </trkpt>
      <trkpt lat="44.436607360839844" lon="11.431295871734619">
        <ele>84</ele>
        <time>2004-07-29T17:28:16Z</time>
      </trkpt>
      <trkpt lat="44.435319900512695" lon="11.431381702423096">
        <ele>80</ele>
        <time>2004-07-29T17:28:37Z</time>
      </trkpt>
      <trkpt lat="44.434869289398193" lon="11.431510364636779">
        <ele>76</ele>
        <time>2004-07-29T17:28:43Z</time>
      </trkpt>
      <trkpt lat="44.434289932250977" lon="11.431660735979676">
        <ele>74</ele>
        <time>2004-07-29T17:28:49Z</time>
      </trkpt>
      <trkpt lat="44.433860778808594" lon="11.431832313537598">
        <ele>71</ele>
        <time>2004-07-29T17:28:54Z</time>
      </trkpt>
      <trkpt lat="44.433088302612305" lon="11.43247595988214">
        <ele>70</ele>
        <time>2004-07-29T17:29:05Z</time>
      </trkpt>
      <trkpt lat="44.432809436693788" lon="11.432433128356934">
        <ele>71</ele>
        <time>2004-07-29T17:29:09Z</time>
      </trkpt>
      <trkpt lat="44.431757926940918" lon="11.431853771209717">
        <ele>72</ele>
        <time>2004-07-29T17:29:28Z</time>
      </trkpt>
      <trkpt lat="44.430985534563661" lon="11.431446075439453">
        <ele>71</ele>
        <time>2004-07-29T17:29:45Z</time>
      </trkpt>
      <trkpt lat="44.429976940155029" lon="11.430931091308594">
        <ele>71</ele>
        <time>2004-07-29T17:30:04Z</time>
      </trkpt>
      <trkpt lat="44.429869735613465" lon="11.430845260620117">
        <ele>71</ele>
        <time>2004-07-29T17:30:06Z</time>
      </trkpt>
      <trkpt lat="44.429268836975098" lon="11.429836833849549">
        <ele>71</ele>
        <time>2004-07-29T17:30:23Z</time>
      </trkpt>
      <trkpt lat="44.428646564483643" lon="11.428678035736084">
        <ele>72</ele>
        <time>2004-07-29T17:30:42Z</time>
      </trkpt>
      <trkpt lat="44.427874088287354" lon="11.427755439653993">
        <ele>74</ele>
        <time>2004-07-29T17:31:00Z</time>
      </trkpt>
      <trkpt lat="44.427015781402588" lon="11.427175998687744">
        <ele>73</ele>
        <time>2004-07-29T17:31:17Z</time>
      </trkpt>
      <trkpt lat="44.42521333694458" lon="11.4260817412287">
        <ele>75</ele>
        <time>2004-07-29T17:31:50Z</time>
      </trkpt>
      <trkpt lat="44.423947334289551" lon="11.425437927246094">
        <ele>76</ele>
        <time>2004-07-29T17:32:12Z</time>
      </trkpt>
      <trkpt lat="44.422852993011475" lon="11.424837112426758">
        <ele>77</ele>
        <time>2004-07-29T17:32:31Z</time>
      </trkpt>
      <trkpt lat="44.42197322845459" lon="11.424343585968018">
        <ele>78</ele>
        <time>2004-07-29T17:32:47Z</time>
      </trkpt>
      <trkpt lat="44.421029090881348" lon="11.423742771148682">
        <ele>78</ele>
        <time>2004-07-29T17:33:05Z</time>
      </trkpt>
      <trkpt lat="44.419505596160889" lon="11.422927379608154">
        <ele>81</ele>
        <time>2004-07-29T17:33:34Z</time>
      </trkpt>
      <trkpt lat="44.418239593505859" lon="11.422669887542725">
        <ele>80</ele>
        <time>2004-07-29T17:33:57Z</time>
      </trkpt>
      <trkpt lat="44.416952133178711" lon="11.422863006591797">
        <ele>81</ele>
        <time>2004-07-29T17:34:18Z</time>
      </trkpt>
      <trkpt lat="44.415621841326356" lon="11.423399364575744">
        <ele>83</ele>
        <time>2004-07-29T17:34:40Z</time>
      </trkpt>
      <trkpt lat="44.414505958557129" lon="11.42378568649292">
        <ele>85</ele>
        <time>2004-07-29T17:35:01Z</time>
      </trkpt>
      <trkpt lat="44.413240039721131" lon="11.424214839935303">
        <ele>88</ele>
        <time>2004-07-29T17:35:25Z</time>
      </trkpt>
      <trkpt lat="44.411952495574951" lon="11.424558162689209">
        <ele>87</ele>
        <time>2004-07-29T17:35:48Z</time>
      </trkpt>
      <trkpt lat="44.410600662231445" lon="11.424965858459473">
        <ele>88</ele>
        <time>2004-07-29T17:36:11Z</time>
      </trkpt>
      <trkpt lat="44.409742439165711" lon="11.424922859296203">
        <ele>88</ele>
        <time>2004-07-29T17:36:26Z</time>
      </trkpt>
      <trkpt lat="44.40849781036377" lon="11.42481573857367">
        <ele>89</ele>
        <time>2004-07-29T17:36:48Z</time>
      </trkpt>
      <trkpt lat="44.407553672790527" lon="11.424729824066162">
        <ele>89</ele>
        <time>2004-07-29T17:37:05Z</time>
      </trkpt>
      <trkpt lat="44.406330585479736" lon="11.424601078033447">
        <ele>90</ele>
        <time>2004-07-29T17:37:28Z</time>
      </trkpt>
      <trkpt lat="44.405686939135194" lon="11.42402172088623">
        <ele>94</ele>
        <time>2004-07-29T17:37:46Z</time>
      </trkpt>
      <trkpt lat="44.405364990234375" lon="11.423506736755371">
        <ele>96</ele>
        <time>2004-07-29T17:38:00Z</time>
      </trkpt>
      <trkpt lat="44.405107498168945" lon="11.423184871673584">
        <ele>97</ele>
        <time>2004-07-29T17:38:09Z</time>
      </trkpt>
      <trkpt lat="44.404227733612061" lon="11.42254114151001">
        <ele>98</ele>
        <time>2004-07-29T17:38:34Z</time>
      </trkpt>
      <trkpt lat="44.403305137529969" lon="11.422648429870605">
        <ele>96</ele>
        <time>2004-07-29T17:38:51Z</time>
      </trkpt>
      <trkpt lat="44.403197765350342" lon="11.422712802886963">
        <ele>96</ele>
        <time>2004-07-29T17:38:53Z</time>
      </trkpt>
      <trkpt lat="44.402210712432861" lon="11.423377990722656">
        <ele>95</ele>
        <time>2004-07-29T17:39:10Z</time>
      </trkpt>
      <trkpt lat="44.40098762512207" lon="11.424129009246826">
        <ele>96</ele>
        <time>2004-07-29T17:39:33Z</time>
      </trkpt>
      <trkpt lat="44.400022029876709" lon="11.424729824066162">
        <ele>98</ele>
        <time>2004-07-29T17:39:53Z</time>
      </trkpt>
      <trkpt lat="44.399120807647705" lon="11.425266265869141">
        <ele>100</ele>
        <time>2004-07-29T17:40:12Z</time>
      </trkpt>
      <trkpt lat="44.398884773254395" lon="11.425416469573975">
        <ele>101</ele>
        <time>2004-07-29T17:40:17Z</time>
      </trkpt>
      <trkpt lat="44.39800500869751" lon="11.425909996032715">
        <ele>101</ele>
        <time>2004-07-29T17:40:36Z</time>
      </trkpt>
      <trkpt lat="44.397532939910889" lon="11.426188861951232">
        <ele>102</ele>
        <time>2004-07-29T17:40:46Z</time>
      </trkpt>
      <trkpt lat="44.397296905517578" lon="11.426317691802979">
        <ele>102</ele>
        <time>2004-07-29T17:40:51Z</time>
      </trkpt>
      <trkpt lat="44.396374225616455" lon="11.426639640703797">
        <ele>102</ele>
        <time>2004-07-29T17:41:08Z</time>
      </trkpt>
      <trkpt lat="44.395365715026855" lon="11.426854133605957">
        <ele>102</ele>
        <time>2004-07-29T17:41:25Z</time>
      </trkpt>
      <trkpt lat="44.393906593322754" lon="11.427175998687744">
        <ele>102</ele>
        <time>2004-07-29T17:41:49Z</time>
      </trkpt>
      <trkpt lat="44.39326286315918" lon="11.427326202392578">
        <ele>103</ele>
        <time>2004-07-29T17:41:59Z</time>
      </trkpt>
      <trkpt lat="44.393155574798584" lon="11.427347660064697">
        <ele>103</ele>
        <time>2004-07-29T17:42:01Z</time>
      </trkpt>
      <trkpt lat="44.392082691192627" lon="11.427562236785889">
        <ele>105</ele>
        <time>2004-07-29T17:42:19Z</time>
      </trkpt>
      <trkpt lat="44.390666484832764" lon="11.427905559539795">
        <ele>107</ele>
        <time>2004-07-29T17:42:44Z</time>
      </trkpt>
      <trkpt lat="44.389743804931641" lon="11.428163135424256">
        <ele>107</ele>
        <time>2004-07-29T17:43:01Z</time>
      </trkpt>
      <trkpt lat="44.389164363965392" lon="11.428935527801514">
        <ele>108</ele>
        <time>2004-07-29T17:43:17Z</time>
      </trkpt>
      <trkpt lat="44.389121532440186" lon="11.429235935211182">
        <ele>108</ele>
        <time>2004-07-29T17:43:22Z</time>
      </trkpt>
      <trkpt lat="44.389464939013124" lon="11.43002986907959">
        <ele>109</ele>
        <time>2004-07-29T17:43:36Z</time>
      </trkpt>
      <trkpt lat="44.390129959210753" lon="11.431102836504579">
        <ele>111</ele>
        <time>2004-07-29T17:43:57Z</time>
      </trkpt>
      <trkpt lat="44.390194416046143" lon="11.4312744140625">
        <ele>112</ele>
        <time>2004-07-29T17:44:01Z</time>
      </trkpt>
      <trkpt lat="44.390044212341309" lon="11.431553363800049">
        <ele>113</ele>
        <time>2004-07-29T17:44:08Z</time>
      </trkpt>
      <trkpt lat="44.389700889587402" lon="11.43202543258667">
        <ele>116</ele>
        <time>2004-07-29T17:44:19Z</time>
      </trkpt>
      <trkpt lat="44.388971328735352" lon="11.432669162750244">
        <ele>116</ele>
        <time>2004-07-29T17:44:37Z</time>
      </trkpt>
      <trkpt lat="44.388155937194824" lon="11.432712078094482">
        <ele>115</ele>
        <time>2004-07-29T17:44:50Z</time>
      </trkpt>
      <trkpt lat="44.387276172637939" lon="11.432240009307861">
        <ele>115</ele>
        <time>2004-07-29T17:45:05Z</time>
      </trkpt>
      <trkpt lat="44.38626766204834" lon="11.432368839159608">
        <ele>113</ele>
        <time>2004-07-29T17:45:21Z</time>
      </trkpt>
      <trkpt lat="44.384872913360596" lon="11.43251895904541">
        <ele>111</ele>
        <time>2004-07-29T17:45:43Z</time>
      </trkpt>
      <trkpt lat="44.384572505950928" lon="11.43251895904541">
        <ele>111</ele>
        <time>2004-07-29T17:45:48Z</time>
      </trkpt>
      <trkpt lat="44.383671283721924" lon="11.43202543258667">
        <ele>114</ele>
        <time>2004-07-29T17:46:06Z</time>
      </trkpt>
      <trkpt lat="44.383199214935303" lon="11.431639194488525">
        <ele>115</ele>
        <time>2004-07-29T17:46:17Z</time>
      </trkpt>
      <trkpt lat="44.382898807525635" lon="11.431381702423096">
        <ele>119</ele>
        <time>2004-07-29T17:46:25Z</time>
      </trkpt>
      <trkpt lat="44.382255077362061" lon="11.430845260620117">
        <ele>122</ele>
        <time>2004-07-29T17:46:43Z</time>
      </trkpt>
      <trkpt lat="44.381589889526367" lon="11.430180072784424">
        <ele>123</ele>
        <time>2004-07-29T17:47:01Z</time>
      </trkpt>
      <trkpt lat="44.380753040313721" lon="11.42897835932672">
        <ele>122</ele>
        <time>2004-07-29T17:47:22Z</time>
      </trkpt>
      <trkpt lat="44.380302429199219" lon="11.427862560376525">
        <ele>122</ele>
        <time>2004-07-29T17:47:36Z</time>
      </trkpt>
      <trkpt lat="44.380002021789551" lon="11.427476406097412">
        <ele>121</ele>
        <time>2004-07-29T17:47:42Z</time>
      </trkpt>
      <trkpt lat="44.378821766003966" lon="11.4267897605896">
        <ele>122</ele>
        <time>2004-07-29T17:48:02Z</time>
      </trkpt>
      <trkpt lat="44.377555763348937" lon="11.426317691802979">
        <ele>123</ele>
        <time>2004-07-29T17:48:26Z</time>
      </trkpt>
      <trkpt lat="44.376590335741639" lon="11.426296234130859">
        <ele>124</ele>
        <time>2004-07-29T17:48:44Z</time>
      </trkpt>
      <trkpt lat="44.375410079956055" lon="11.426553726196289">
        <ele>126</ele>
        <time>2004-07-29T17:49:04Z</time>
      </trkpt>
      <trkpt lat="44.37427282333374" lon="11.426918506622314">
        <ele>126</ele>
        <time>2004-07-29T17:49:25Z</time>
      </trkpt>
      <trkpt lat="44.373135566711426" lon="11.427497863769531">
        <ele>127</ele>
        <time>2004-07-29T17:49:46Z</time>
      </trkpt>
      <trkpt lat="44.372963905334473" lon="11.427562236785889">
        <ele>127</ele>
        <time>2004-07-29T17:49:49Z</time>
      </trkpt>
      <trkpt lat="44.372212886810303" lon="11.427390575408936">
        <ele>131</ele>
        <time>2004-07-29T17:50:04Z</time>
      </trkpt>
      <trkpt lat="44.371547698974609" lon="11.427047336474061">
        <ele>134</ele>
        <time>2004-07-29T17:50:22Z</time>
      </trkpt>
      <trkpt lat="44.37129020690918" lon="11.426939964294434">
        <ele>137</ele>
        <time>2004-07-29T17:50:31Z</time>
      </trkpt>
      <trkpt lat="44.370732307434082" lon="11.426639640703797">
        <ele>138</ele>
        <time>2004-07-29T17:50:49Z</time>
      </trkpt>
      <trkpt lat="44.370388984680176" lon="11.426489436998963">
        <ele>140</ele>
        <time>2004-07-29T17:51:03Z</time>
      </trkpt>
      <trkpt lat="44.370217323303223" lon="11.426467895507813">
        <ele>142</ele>
        <time>2004-07-29T17:51:13Z</time>
      </trkpt>
      <trkpt lat="44.370174407958984" lon="11.426553726196289">
        <ele>142</ele>
        <time>2004-07-29T17:51:17Z</time>
      </trkpt>
      <trkpt lat="44.370153034105897" lon="11.426639640703797">
        <ele>143</ele>
        <time>2004-07-29T17:51:20Z</time>
      </trkpt>
      <trkpt lat="44.370174407958984" lon="11.426982879638672">
        <ele>146</ele>
        <time>2004-07-29T17:51:36Z</time>
      </trkpt>
      <trkpt lat="44.370067119598389" lon="11.426918506622314">
        <ele>147</ele>
        <time>2004-07-29T17:51:44Z</time>
      </trkpt>
      <trkpt lat="44.369680881500244" lon="11.42676830291748">
        <ele>151</ele>
        <time>2004-07-29T17:52:04Z</time>
      </trkpt>
      <trkpt lat="44.369380474090576" lon="11.426896965131164">
        <ele>154</ele>
        <time>2004-07-29T17:52:20Z</time>
      </trkpt>
      <trkpt lat="44.369058609008789" lon="11.427197540178895">
        <ele>158</ele>
        <time>2004-07-29T17:52:38Z</time>
      </trkpt>
      <trkpt lat="44.36877965927124" lon="11.427497863769531">
        <ele>161</ele>
        <time>2004-07-29T17:52:55Z</time>
      </trkpt>
      <trkpt lat="44.36854362487793" lon="11.427798271179199">
        <ele>164</ele>
        <time>2004-07-29T17:53:12Z</time>
      </trkpt>
      <trkpt lat="44.368414878845215" lon="11.428184509277344">
        <ele>167</ele>
        <time>2004-07-29T17:53:28Z</time>
      </trkpt>
      <trkpt lat="44.368178760632873" lon="11.428506374359131">
        <ele>171</ele>
        <time>2004-07-29T17:53:47Z</time>
      </trkpt>
      <trkpt lat="44.368007183074951" lon="11.428656578063965">
        <ele>174</ele>
        <time>2004-07-29T17:54:00Z</time>
      </trkpt>
      <trkpt lat="44.367771064862609" lon="11.428914070129395">
        <ele>177</ele>
        <time>2004-07-29T17:54:15Z</time>
      </trkpt>
      <trkpt lat="44.367578029632568" lon="11.429321765899658">
        <ele>180</ele>
        <time>2004-07-29T17:54:34Z</time>
      </trkpt>
      <trkpt lat="44.367513740435243" lon="11.429536258801818">
        <ele>183</ele>
        <time>2004-07-29T17:54:42Z</time>
      </trkpt>
      <trkpt lat="44.367492198944092" lon="11.429965496063232">
        <ele>186</ele>
        <time>2004-07-29T17:54:58Z</time>
      </trkpt>
      <trkpt lat="44.367492198944092" lon="11.43052339553833">
        <ele>190</ele>
        <time>2004-07-29T17:55:18Z</time>
      </trkpt>
      <trkpt lat="44.367599487304688" lon="11.430845260620117">
        <ele>193</ele>
        <time>2004-07-29T17:55:33Z</time>
      </trkpt>
      <trkpt lat="44.36779260635376" lon="11.430823802947998">
        <ele>197</ele>
        <time>2004-07-29T17:55:46Z</time>
      </trkpt>
      <trkpt lat="44.368178760632873" lon="11.430459022521973">
        <ele>200</ele>
        <time>2004-07-29T17:56:07Z</time>
      </trkpt>
      <trkpt lat="44.368414878845215" lon="11.430222988128662">
        <ele>202</ele>
        <time>2004-07-29T17:56:21Z</time>
      </trkpt>
      <trkpt lat="44.368522167205811" lon="11.430394565686584">
        <ele>205</ele>
        <time>2004-07-29T17:56:31Z</time>
      </trkpt>
      <trkpt lat="44.368264675140381" lon="11.430695140734315">
        <ele>208</ele>
        <time>2004-07-29T17:56:51Z</time>
      </trkpt>
      <trkpt lat="44.368178760632873" lon="11.430802261456847">
        <ele>210</ele>
        <time>2004-07-29T17:56:56Z</time>
      </trkpt>
      <trkpt lat="44.368135929107666" lon="11.431059837341309">
        <ele>214</ele>
        <time>2004-07-29T17:57:06Z</time>
      </trkpt>
      <trkpt lat="44.368243217468262" lon="11.431467533111572">
        <ele>217</ele>
        <time>2004-07-29T17:57:24Z</time>
      </trkpt>
      <trkpt lat="44.368500709533691" lon="11.431896686553955">
        <ele>219</ele>
        <time>2004-07-29T17:57:43Z</time>
      </trkpt>
      <trkpt lat="44.368522167205811" lon="11.431939601898193">
        <ele>220</ele>
        <time>2004-07-29T17:57:45Z</time>
      </trkpt>
      <trkpt lat="44.368522167205811" lon="11.432175636291504">
        <ele>223</ele>
        <time>2004-07-29T17:57:54Z</time>
      </trkpt>
      <trkpt lat="44.368393421173096" lon="11.432540416717529">
        <ele>227</ele>
        <time>2004-07-29T17:58:10Z</time>
      </trkpt>
      <trkpt lat="44.3682861328125" lon="11.433033859357238">
        <ele>230</ele>
        <time>2004-07-29T17:58:31Z</time>
      </trkpt>
      <trkpt lat="44.368157386779785" lon="11.433334434404969">
        <ele>233</ele>
        <time>2004-07-29T17:58:45Z</time>
      </trkpt>
      <trkpt lat="44.368135929107666" lon="11.433677673339844">
        <ele>237</ele>
        <time>2004-07-29T17:59:00Z</time>
      </trkpt>
      <trkpt lat="44.368135929107666" lon="11.433956623077393">
        <ele>239</ele>
        <time>2004-07-29T17:59:13Z</time>
      </trkpt>
      <trkpt lat="44.367921436205506" lon="11.434235572814941">
        <ele>242</ele>
        <time>2004-07-29T17:59:29Z</time>
      </trkpt>
      <trkpt lat="44.367620861157775" lon="11.43427848815918">
        <ele>245</ele>
        <time>2004-07-29T17:59:47Z</time>
      </trkpt>
      <trkpt lat="44.367256164550781" lon="11.434235572814941">
        <ele>249</ele>
        <time>2004-07-29T18:00:05Z</time>
      </trkpt>
      <trkpt lat="44.367084503173828" lon="11.434192741289735">
        <ele>252</ele>
        <time>2004-07-29T18:00:14Z</time>
      </trkpt>
      <trkpt lat="44.366998672485352" lon="11.434192741289735">
        <ele>252</ele>
        <time>2004-07-29T18:00:18Z</time>
      </trkpt>
      <trkpt lat="44.366741180419922" lon="11.434578895568848">
        <ele>256</ele>
        <time>2004-07-29T18:00:36Z</time>
      </trkpt>
      <trkpt lat="44.366719722747803" lon="11.434600437059999">
        <ele>256</ele>
        <time>2004-07-29T18:00:37Z</time>
      </trkpt>
      <trkpt lat="44.366612434387207" lon="11.434965133666992">
        <ele>259</ele>
        <time>2004-07-29T18:00:53Z</time>
      </trkpt>
      <trkpt lat="44.366419315338135" lon="11.435158336535096">
        <ele>262</ele>
        <time>2004-07-29T18:01:06Z</time>
      </trkpt>
      <trkpt lat="44.366269111633301" lon="11.435501575469971">
        <ele>265</ele>
        <time>2004-07-29T18:01:20Z</time>
      </trkpt>
      <trkpt lat="44.366354858502746" lon="11.43578052520752">
        <ele>268</ele>
        <time>2004-07-29T18:01:34Z</time>
      </trkpt>
      <trkpt lat="44.366741180419922" lon="11.435630321502686">
        <ele>271</ele>
        <time>2004-07-29T18:01:52Z</time>
      </trkpt>
      <trkpt lat="44.366805637255311" lon="11.435608863830566">
        <ele>272</ele>
        <time>2004-07-29T18:01:55Z</time>
      </trkpt>
      <trkpt lat="44.366827011108398" lon="11.435651779174805">
        <ele>272</ele>
        <time>2004-07-29T18:01:57Z</time>
      </trkpt>
      <trkpt lat="44.366698265075684" lon="11.435801982879639">
        <ele>275</ele>
        <time>2004-07-29T18:02:10Z</time>
      </trkpt>
      <trkpt lat="44.366462230682373" lon="11.435930728912354">
        <ele>277</ele>
        <time>2004-07-29T18:02:27Z</time>
      </trkpt>
      <trkpt lat="44.366204738616943" lon="11.436188220977783">
        <ele>280</ele>
        <time>2004-07-29T18:02:47Z</time>
      </trkpt>
      <trkpt lat="44.366075992584229" lon="11.436231136322021">
        <ele>282</ele>
        <time>2004-07-29T18:02:56Z</time>
      </trkpt>
      <trkpt lat="44.365861415863037" lon="11.436402797698975">
        <ele>285</ele>
        <time>2004-07-29T18:03:13Z</time>
      </trkpt>
      <trkpt lat="44.365625381469727" lon="11.436553001403809">
        <ele>288</ele>
        <time>2004-07-29T18:03:28Z</time>
      </trkpt>
      <trkpt lat="44.365496635437012" lon="11.436810493469238">
        <ele>291</ele>
        <time>2004-07-29T18:03:42Z</time>
      </trkpt>
      <trkpt lat="44.365324974060059" lon="11.437089359387755">
        <ele>294</ele>
        <time>2004-07-29T18:03:59Z</time>
      </trkpt>
      <trkpt lat="44.365110397338867" lon="11.437411308288574">
        <ele>297</ele>
        <time>2004-07-29T18:04:17Z</time>
      </trkpt>
      <trkpt lat="44.364938735961914" lon="11.43775463104248">
        <ele>300</ele>
        <time>2004-07-29T18:04:33Z</time>
      </trkpt>
      <trkpt lat="44.364659786224365" lon="11.438183784484863">
        <ele>303</ele>
        <time>2004-07-29T18:04:53Z</time>
      </trkpt>
      <trkpt lat="44.364509582519531" lon="11.438505565747619">
        <ele>306</ele>
        <time>2004-07-29T18:05:12Z</time>
      </trkpt>
      <trkpt lat="44.364402294158936" lon="11.43876314163208">
        <ele>309</ele>
        <time>2004-07-29T18:05:26Z</time>
      </trkpt>
      <trkpt lat="44.364402294158936" lon="11.438848972320557">
        <ele>310</ele>
        <time>2004-07-29T18:05:30Z</time>
      </trkpt>
      <trkpt lat="44.364445209503174" lon="11.438956260681152">
        <ele>311</ele>
        <time>2004-07-29T18:05:35Z</time>
      </trkpt>
      <trkpt lat="44.364595413208008" lon="11.438784599304199">
        <ele>312</ele>
        <time>2004-07-29T18:05:47Z</time>
      </trkpt>
      <trkpt lat="44.364831363782287" lon="11.438484191894531">
        <ele>314</ele>
        <time>2004-07-29T18:06:09Z</time>
      </trkpt>
      <trkpt lat="44.365389263257384" lon="11.438140869140625">
        <ele>317</ele>
        <time>2004-07-29T18:06:34Z</time>
      </trkpt>
      <trkpt lat="44.365818500518799" lon="11.437819004058838">
        <ele>320</ele>
        <time>2004-07-29T18:06:55Z</time>
      </trkpt>
      <trkpt lat="44.366118907928467" lon="11.437604427337646">
        <ele>324</ele>
        <time>2004-07-29T18:07:09Z</time>
      </trkpt>
      <trkpt lat="44.366462230682373" lon="11.437497138977051">
        <ele>327</ele>
        <time>2004-07-29T18:07:24Z</time>
      </trkpt>
      <trkpt lat="44.366569519042969" lon="11.437454223632812">
        <ele>328</ele>
        <time>2004-07-29T18:07:29Z</time>
      </trkpt>
      <trkpt lat="44.366955840960145" lon="11.43726110458374">
        <ele>332</ele>
        <time>2004-07-29T18:07:50Z</time>
      </trkpt>
      <trkpt lat="44.367213165387511" lon="11.437346935272217">
        <ele>335</ele>
        <time>2004-07-29T18:08:07Z</time>
      </trkpt>
      <trkpt lat="44.367320537567139" lon="11.43775463104248">
        <ele>339</ele>
        <time>2004-07-29T18:08:29Z</time>
      </trkpt>
      <trkpt lat="44.367449283599854" lon="11.438140869140625">
        <ele>341</ele>
        <time>2004-07-29T18:08:47Z</time>
      </trkpt>
      <trkpt lat="44.367449283599854" lon="11.438162326812744">
        <ele>341</ele>
        <time>2004-07-29T18:08:48Z</time>
      </trkpt>
      <trkpt lat="44.367363536730409" lon="11.438291072845459">
        <ele>342</ele>
        <time>2004-07-29T18:08:55Z</time>
      </trkpt>
      <trkpt lat="44.367170333862305" lon="11.43852710723877">
        <ele>345</ele>
        <time>2004-07-29T18:09:11Z</time>
      </trkpt>
      <trkpt lat="44.3672776222229" lon="11.438784599304199">
        <ele>348</ele>
        <time>2004-07-29T18:09:26Z</time>
      </trkpt>
      <trkpt lat="44.367320537567139" lon="11.438827514648438">
        <ele>348</ele>
        <time>2004-07-29T18:09:28Z</time>
      </trkpt>
      <trkpt lat="44.367213165387511" lon="11.438999176025391">
        <ele>350</ele>
        <time>2004-07-29T18:09:41Z</time>
      </trkpt>
      <trkpt lat="44.367191791534424" lon="11.438999176025391">
        <ele>350</ele>
        <time>2004-07-29T18:09:42Z</time>
      </trkpt>
      <trkpt lat="44.366998672485352" lon="11.439085006713867">
        <ele>353</ele>
        <time>2004-07-29T18:09:55Z</time>
      </trkpt>
      <trkpt lat="44.366805637255311" lon="11.439321041107178">
        <ele>357</ele>
        <time>2004-07-29T18:10:11Z</time>
      </trkpt>
      <trkpt lat="44.366569519042969" lon="11.439685821533203">
        <ele>360</ele>
        <time>2004-07-29T18:10:30Z</time>
      </trkpt>
      <trkpt lat="44.366376399993896" lon="11.439986228942871">
        <ele>362</ele>
        <time>2004-07-29T18:10:48Z</time>
      </trkpt>
      <trkpt lat="44.366140365600586" lon="11.440308094024658">
        <ele>365</ele>
        <time>2004-07-29T18:11:07Z</time>
      </trkpt>
      <trkpt lat="44.365990161895752" lon="11.440801620483398">
        <ele>366</ele>
        <time>2004-07-29T18:11:27Z</time>
      </trkpt>
      <trkpt lat="44.365904331207275" lon="11.4412522315979">
        <ele>369</ele>
        <time>2004-07-29T18:11:42Z</time>
      </trkpt>
      <trkpt lat="44.365689838305116" lon="11.441681385040283">
        <ele>371</ele>
        <time>2004-07-29T18:12:00Z</time>
      </trkpt>
      <trkpt lat="44.365646839141846" lon="11.441831588745117">
        <ele>371</ele>
        <time>2004-07-29T18:12:07Z</time>
      </trkpt>
      <trkpt lat="44.365625381469727" lon="11.441831588745117">
        <ele>372</ele>
        <time>2004-07-29T18:12:09Z</time>
      </trkpt>
      <trkpt lat="44.365625381469727" lon="11.441831588745117">
        <ele>372</ele>
        <time>2004-07-29T18:12:19Z</time>
      </trkpt>
      <trkpt lat="44.365561008453369" lon="11.441981792449951">
        <ele>373</ele>
        <time>2004-07-29T18:12:27Z</time>
      </trkpt>
      <trkpt lat="44.365561008453369" lon="11.441981792449951">
        <ele>372</ele>
        <time>2004-07-29T18:12:28Z</time>
      </trkpt>
      <trkpt lat="44.365324974060059" lon="11.442325115203857">
        <ele>374</ele>
        <time>2004-07-29T18:12:45Z</time>
      </trkpt>
      <trkpt lat="44.364960193634033" lon="11.442668437957764">
        <ele>376</ele>
        <time>2004-07-29T18:13:02Z</time>
      </trkpt>
      <trkpt lat="44.364595413208008" lon="11.442947387695313">
        <ele>376</ele>
        <time>2004-07-29T18:13:18Z</time>
      </trkpt>
      <trkpt lat="44.364509582519531" lon="11.443333625793457">
        <ele>377</ele>
        <time>2004-07-29T18:13:33Z</time>
      </trkpt>
      <trkpt lat="44.36455249786377" lon="11.443676864728332">
        <ele>379</ele>
        <time>2004-07-29T18:13:47Z</time>
      </trkpt>
      <trkpt lat="44.364445209503174" lon="11.444106101989746">
        <ele>381</ele>
        <time>2004-07-29T18:14:02Z</time>
      </trkpt>
      <trkpt lat="44.36429500579834" lon="11.444556713104248">
        <ele>384</ele>
        <time>2004-07-29T18:14:20Z</time>
      </trkpt>
      <trkpt lat="44.363930225372314" lon="11.444857120513916">
        <ele>384</ele>
        <time>2004-07-29T18:14:33Z</time>
      </trkpt>
      <trkpt lat="44.363822937011719" lon="11.44500732421875">
        <ele>385</ele>
        <time>2004-07-29T18:14:37Z</time>
      </trkpt>
      <trkpt lat="44.363243579864502" lon="11.445736885070801">
        <ele>385</ele>
        <time>2004-07-29T18:14:56Z</time>
      </trkpt>
      <trkpt lat="44.362707138061523" lon="11.446316158398986">
        <ele>384</ele>
        <time>2004-07-29T18:15:11Z</time>
      </trkpt>
      <trkpt lat="44.362213611602783" lon="11.446681022644043">
        <ele>387</ele>
        <time>2004-07-29T18:15:26Z</time>
      </trkpt>
      <trkpt lat="44.361612796783447" lon="11.447303295135498">
        <ele>388</ele>
        <time>2004-07-29T18:15:45Z</time>
      </trkpt>
      <trkpt lat="44.360775863751769" lon="11.447882736101747">
        <ele>390</ele>
        <time>2004-07-29T18:16:08Z</time>
      </trkpt>
      <trkpt lat="44.360217964276671" lon="11.448290264233947">
        <ele>394</ele>
        <time>2004-07-29T18:16:25Z</time>
      </trkpt>
      <trkpt lat="44.359767436981201" lon="11.448633670806885">
        <ele>398</ele>
        <time>2004-07-29T18:16:42Z</time>
      </trkpt>
      <trkpt lat="44.359745979309082" lon="11.448655128479004">
        <ele>398</ele>
        <time>2004-07-29T18:16:43Z</time>
      </trkpt>
      <trkpt lat="44.35950986109674" lon="11.448676586151123">
        <ele>401</ele>
        <time>2004-07-29T18:16:53Z</time>
      </trkpt>
      <trkpt lat="44.359316825866699" lon="11.448719501495361">
        <ele>403</ele>
        <time>2004-07-29T18:17:05Z</time>
      </trkpt>
      <trkpt lat="44.359316825866699" lon="11.448869705200195">
        <ele>403</ele>
        <time>2004-07-29T18:17:12Z</time>
      </trkpt>
      <trkpt lat="44.359402740374207" lon="11.449427604675293">
        <ele>401</ele>
        <time>2004-07-29T18:17:26Z</time>
      </trkpt>
      <trkpt lat="44.359595775604248" lon="11.449813758954406">
        <ele>403</ele>
        <time>2004-07-29T18:17:42Z</time>
      </trkpt>
      <trkpt lat="44.359767436981201" lon="11.44996396265924">
        <ele>406</ele>
        <time>2004-07-29T18:17:53Z</time>
      </trkpt>
      <trkpt lat="44.359939098358154" lon="11.450264537706971">
        <ele>409</ele>
        <time>2004-07-29T18:18:06Z</time>
      </trkpt>
      <trkpt lat="44.360217964276671" lon="11.450521862134337">
        <ele>409</ele>
        <time>2004-07-29T18:18:20Z</time>
      </trkpt>
      <trkpt lat="44.360368335619569" lon="11.450886726379395">
        <ele>405</ele>
        <time>2004-07-29T18:18:25Z</time>
      </trkpt>
      <trkpt lat="44.360325336456299" lon="11.451187133789063">
        <ele>402</ele>
        <time>2004-07-29T18:18:28Z</time>
      </trkpt>
      <trkpt lat="44.360260963439941" lon="11.451466083526611">
        <ele>396</ele>
        <time>2004-07-29T18:18:31Z</time>
      </trkpt>
      <trkpt lat="44.360196590423584" lon="11.451680660247803">
        <ele>393</ele>
        <time>2004-07-29T18:18:33Z</time>
      </trkpt>
      <trkpt lat="44.360132217407227" lon="11.452066898345947">
        <ele>389</ele>
        <time>2004-07-29T18:18:36Z</time>
      </trkpt>
      <trkpt lat="44.360325336456299" lon="11.452689170837402">
        <ele>387</ele>
        <time>2004-07-29T18:18:42Z</time>
      </trkpt>
      <trkpt lat="44.36053991317749" lon="11.452839374542236">
        <ele>387</ele>
        <time>2004-07-29T18:18:45Z</time>
      </trkpt>
      <trkpt lat="44.360818862915039" lon="11.453011035919189">
        <ele>382</ele>
        <time>2004-07-29T18:18:50Z</time>
      </trkpt>
      <trkpt lat="44.360947608947754" lon="11.453054035082459">
        <ele>378</ele>
        <time>2004-07-29T18:18:52Z</time>
      </trkpt>
      <trkpt lat="44.361162185668945" lon="11.453139781951904">
        <ele>375</ele>
        <time>2004-07-29T18:18:55Z</time>
      </trkpt>
      <trkpt lat="44.361333763226867" lon="11.453225612640381">
        <ele>370</ele>
        <time>2004-07-29T18:18:58Z</time>
      </trkpt>
      <trkpt lat="44.361526966094971" lon="11.453289985656738">
        <ele>367</ele>
        <time>2004-07-29T18:19:01Z</time>
      </trkpt>
      <trkpt lat="44.361677169799805" lon="11.453332901000977">
        <ele>363</ele>
        <time>2004-07-29T18:19:04Z</time>
      </trkpt>
      <trkpt lat="44.36174145899713" lon="11.453397274017334">
        <ele>361</ele>
        <time>2004-07-29T18:19:07Z</time>
      </trkpt>
      <trkpt lat="44.361891662701964" lon="11.453440189361572">
        <ele>359</ele>
        <time>2004-07-29T18:19:11Z</time>
      </trkpt>
      <trkpt lat="44.362020492553711" lon="11.45350456237793">
        <ele>356</ele>
        <time>2004-07-29T18:19:14Z</time>
      </trkpt>
      <trkpt lat="44.362149238586426" lon="11.453547477722168">
        <ele>352</ele>
        <time>2004-07-29T18:19:17Z</time>
      </trkpt>
      <trkpt lat="44.362256526947021" lon="11.453590393066406">
        <ele>349</ele>
        <time>2004-07-29T18:19:20Z</time>
      </trkpt>
      <trkpt lat="44.362363815307617" lon="11.453633308410645">
        <ele>346</ele>
        <time>2004-07-29T18:19:23Z</time>
      </trkpt>
      <trkpt lat="44.362406730651855" lon="11.453633308410645">
        <ele>345</ele>
        <time>2004-07-29T18:19:24Z</time>
      </trkpt>
      <trkpt lat="44.362621307373047" lon="11.45374059677124">
        <ele>340</ele>
        <time>2004-07-29T18:19:29Z</time>
      </trkpt>
      <trkpt lat="44.362728595733643" lon="11.45374059677124">
        <ele>337</ele>
        <time>2004-07-29T18:19:32Z</time>
      </trkpt>
      <trkpt lat="44.362814426422119" lon="11.453654766082764">
        <ele>333</ele>
        <time>2004-07-29T18:19:36Z</time>
      </trkpt>
      <trkpt lat="44.362857341766357" lon="11.453590393066406">
        <ele>331</ele>
        <time>2004-07-29T18:19:38Z</time>
      </trkpt>
      <trkpt lat="44.362986087799072" lon="11.453590393066406">
        <ele>328</ele>
        <time>2004-07-29T18:19:42Z</time>
      </trkpt>
      <trkpt lat="44.363157665356994" lon="11.453697681427002">
        <ele>326</ele>
        <time>2004-07-29T18:19:47Z</time>
      </trkpt>
      <trkpt lat="44.363522529602051" lon="11.454041004180908">
        <ele>322</ele>
        <time>2004-07-29T18:19:57Z</time>
      </trkpt>
      <trkpt lat="44.363565361127257" lon="11.454083919525146">
        <ele>322</ele>
        <time>2004-07-29T18:19:58Z</time>
      </trkpt>
      <trkpt lat="44.363715564832091" lon="11.454384326934814">
        <ele>320</ele>
        <time>2004-07-29T18:20:03Z</time>
      </trkpt>
      <trkpt lat="44.363822937011719" lon="11.454534530639648">
        <ele>317</ele>
        <time>2004-07-29T18:20:06Z</time>
      </trkpt>
      <trkpt lat="44.363908767700195" lon="11.454620361328125">
        <ele>315</ele>
        <time>2004-07-29T18:20:08Z</time>
      </trkpt>
      <trkpt lat="44.364144802093506" lon="11.454813480377197">
        <ele>312</ele>
        <time>2004-07-29T18:20:12Z</time>
      </trkpt>
      <trkpt lat="44.364359378814697" lon="11.45500659942627">
        <ele>308</ele>
        <time>2004-07-29T18:20:15Z</time>
      </trkpt>
      <trkpt lat="44.364445209503174" lon="11.455070972442627">
        <ele>308</ele>
        <time>2004-07-29T18:20:16Z</time>
      </trkpt>
      <trkpt lat="44.364638328552246" lon="11.455264091491699">
        <ele>304</ele>
        <time>2004-07-29T18:20:22Z</time>
      </trkpt>
      <trkpt lat="44.364960193634033" lon="11.455564498901367">
        <ele>302</ele>
        <time>2004-07-29T18:20:37Z</time>
      </trkpt>
      <trkpt lat="44.365174770355225" lon="11.455779075622559">
        <ele>303</ele>
        <time>2004-07-29T18:20:52Z</time>
      </trkpt>
      <trkpt lat="44.365346431732178" lon="11.455993736162782">
        <ele>307</ele>
        <time>2004-07-29T18:21:08Z</time>
      </trkpt>
      <trkpt lat="44.365561008453369" lon="11.456100940704346">
        <ele>309</ele>
        <time>2004-07-29T18:21:25Z</time>
      </trkpt>
      <trkpt lat="44.365646839141846" lon="11.456100940704346">
        <ele>305</ele>
        <time>2004-07-29T18:21:41Z</time>
      </trkpt>
      <trkpt lat="44.365646839141846" lon="11.456100940704346">
        <ele>309</ele>
        <time>2004-07-29T18:21:42Z</time>
      </trkpt>
      <trkpt lat="44.365646839141846" lon="11.456100940704346">
        <ele>309</ele>
        <time>2004-07-29T18:21:43Z</time>
      </trkpt>
      <trkpt lat="44.365646839141846" lon="11.456100940704346">
        <ele>308</ele>
        <time>2004-07-29T18:22:34Z</time>
      </trkpt>
      <trkpt lat="44.365839958190918" lon="11.456122398376465">
        <ele>308</ele>
        <time>2004-07-29T18:22:49Z</time>
      </trkpt>
      <trkpt lat="44.366183280944824" lon="11.456143939867616">
        <ele>310</ele>
        <time>2004-07-29T18:23:10Z</time>
      </trkpt>
      <trkpt lat="44.366483688354492" lon="11.456143939867616">
        <ele>313</ele>
        <time>2004-07-29T18:23:28Z</time>
      </trkpt>
      <trkpt lat="44.366590976715088" lon="11.456165313720703">
        <ele>316</ele>
        <time>2004-07-29T18:23:35Z</time>
      </trkpt>
      <trkpt lat="44.366762638092041" lon="11.456165313720703">
        <ele>319</ele>
        <time>2004-07-29T18:23:46Z</time>
      </trkpt>
      <trkpt lat="44.366912841796875" lon="11.456143939867616">
        <ele>323</ele>
        <time>2004-07-29T18:23:55Z</time>
      </trkpt>
      <trkpt lat="44.367062961682677" lon="11.456100940704346">
        <ele>326</ele>
        <time>2004-07-29T18:24:06Z</time>
      </trkpt>
      <trkpt lat="44.367213165387511" lon="11.456079483032227">
        <ele>329</ele>
        <time>2004-07-29T18:24:19Z</time>
      </trkpt>
      <trkpt lat="44.367320537567139" lon="11.456079483032227">
        <ele>332</ele>
        <time>2004-07-29T18:24:27Z</time>
      </trkpt>
      <trkpt lat="44.367470741271973" lon="11.456100940704346">
        <ele>334</ele>
        <time>2004-07-29T18:24:41Z</time>
      </trkpt>
      <trkpt lat="44.367578029632568" lon="11.456122398376465">
        <ele>337</ele>
        <time>2004-07-29T18:24:50Z</time>
      </trkpt>
      <trkpt lat="44.367706775665283" lon="11.456143939867616">
        <ele>340</ele>
        <time>2004-07-29T18:25:03Z</time>
      </trkpt>
      <trkpt lat="44.367878437042236" lon="11.456143939867616">
        <ele>343</ele>
        <time>2004-07-29T18:25:20Z</time>
      </trkpt>
      <trkpt lat="44.368007183074951" lon="11.456143939867616">
        <ele>344</ele>
        <time>2004-07-29T18:25:38Z</time>
      </trkpt>
      <trkpt lat="44.368007183074951" lon="11.456186771392822">
        <ele>344</ele>
        <time>2004-07-29T18:26:09Z</time>
      </trkpt>
      <trkpt lat="44.368157386779785" lon="11.456165313720703">
        <ele>343</ele>
        <time>2004-07-29T18:26:45Z</time>
      </trkpt>
      <trkpt lat="44.368221759796143" lon="11.456186771392822">
        <ele>343</ele>
        <time>2004-07-29T18:26:47Z</time>
      </trkpt>
      <trkpt lat="44.368629539385438" lon="11.456229686737061">
        <ele>341</ele>
        <time>2004-07-29T18:27:00Z</time>
      </trkpt>
      <trkpt lat="44.369037235155702" lon="11.456229686737061">
        <ele>342</ele>
        <time>2004-07-29T18:27:19Z</time>
      </trkpt>
      <trkpt lat="44.369165897369385" lon="11.456294059753418">
        <ele>345</ele>
        <time>2004-07-29T18:27:25Z</time>
      </trkpt>
      <trkpt lat="44.36927318572998" lon="11.45648717880249">
        <ele>348</ele>
        <time>2004-07-29T18:27:35Z</time>
      </trkpt>
      <trkpt lat="44.369294559583068" lon="11.456508636474609">
        <ele>348</ele>
        <time>2004-07-29T18:27:36Z</time>
      </trkpt>
      <trkpt lat="44.369423389434814" lon="11.456873416900635">
        <ele>351</ele>
        <time>2004-07-29T18:27:54Z</time>
      </trkpt>
      <trkpt lat="44.369444763287902" lon="11.456937789916992">
        <ele>353</ele>
        <time>2004-07-29T18:27:57Z</time>
      </trkpt>
      <trkpt lat="44.369552135467529" lon="11.457130908966064">
        <ele>356</ele>
        <time>2004-07-29T18:28:06Z</time>
      </trkpt>
      <trkpt lat="44.369552135467529" lon="11.457152366638184">
        <ele>356</ele>
        <time>2004-07-29T18:28:07Z</time>
      </trkpt>
      <trkpt lat="44.369809627532959" lon="11.457345485687256">
        <ele>358</ele>
        <time>2004-07-29T18:28:26Z</time>
      </trkpt>
      <trkpt lat="44.370195865631104" lon="11.457517063245177">
        <ele>357</ele>
        <time>2004-07-29T18:28:43Z</time>
      </trkpt>
      <trkpt lat="44.37028169631958" lon="11.457560062408447">
        <ele>357</ele>
        <time>2004-07-29T18:28:45Z</time>
      </trkpt>
      <trkpt lat="44.371011340990663" lon="11.457624435424805">
        <ele>358</ele>
        <time>2004-07-29T18:29:04Z</time>
      </trkpt>
      <trkpt lat="44.371075630187988" lon="11.457602977752686">
        <ele>360</ele>
        <time>2004-07-29T18:29:07Z</time>
      </trkpt>
      <trkpt lat="44.371483325958252" lon="11.457560062408447">
        <ele>359</ele>
        <time>2004-07-29T18:29:21Z</time>
      </trkpt>
      <trkpt lat="44.371933937072754" lon="11.457474231719971">
        <ele>359</ele>
        <time>2004-07-29T18:29:35Z</time>
      </trkpt>
      <trkpt lat="44.372406005859375" lon="11.457710266113281">
        <ele>358</ele>
        <time>2004-07-29T18:29:46Z</time>
      </trkpt>
      <trkpt lat="44.372727870941162" lon="11.458074962720275">
        <ele>358</ele>
        <time>2004-07-29T18:29:58Z</time>
      </trkpt>
      <trkpt lat="44.372792160138488" lon="11.458203792572021">
        <ele>359</ele>
        <time>2004-07-29T18:30:02Z</time>
      </trkpt>
      <trkpt lat="44.373071193695068" lon="11.458182334899902">
        <ele>359</ele>
        <time>2004-07-29T18:30:12Z</time>
      </trkpt>
      <trkpt lat="44.37328577041626" lon="11.458074962720275">
        <ele>357</ele>
        <time>2004-07-29T18:30:16Z</time>
      </trkpt>
      <trkpt lat="44.373693466186523" lon="11.457774639129639">
        <ele>351</ele>
        <time>2004-07-29T18:30:21Z</time>
      </trkpt>
      <trkpt lat="44.373972415924072" lon="11.457581520080566">
        <ele>346</ele>
        <time>2004-07-29T18:30:24Z</time>
      </trkpt>
      <trkpt lat="44.37427282333374" lon="11.457324028015137">
        <ele>343</ele>
        <time>2004-07-29T18:30:27Z</time>
      </trkpt>
      <trkpt lat="44.374444484710693" lon="11.457152366638184">
        <ele>340</ele>
        <time>2004-07-29T18:30:29Z</time>
      </trkpt>
      <trkpt lat="44.374744892120361" lon="11.457045078277588">
        <ele>337</ele>
        <time>2004-07-29T18:30:32Z</time>
      </trkpt>
      <trkpt lat="44.37506684102118" lon="11.457087993621826">
        <ele>335</ele>
        <time>2004-07-29T18:30:35Z</time>
      </trkpt>
      <trkpt lat="44.375238418579102" lon="11.457152366638184">
        <ele>334</ele>
        <time>2004-07-29T18:30:37Z</time>
      </trkpt>
      <trkpt lat="44.375581741333008" lon="11.457152366638184">
        <ele>332</ele>
        <time>2004-07-29T18:30:41Z</time>
      </trkpt>
      <trkpt lat="44.375882064923644" lon="11.457109535112977">
        <ele>328</ele>
        <time>2004-07-29T18:30:45Z</time>
      </trkpt>
      <trkpt lat="44.376010894775391" lon="11.457066535949707">
        <ele>328</ele>
        <time>2004-07-29T18:30:47Z</time>
      </trkpt>
      <trkpt lat="44.376461505889893" lon="11.45700216293335">
        <ele>329</ele>
        <time>2004-07-29T18:30:59Z</time>
      </trkpt>
      <trkpt lat="44.376890659332275" lon="11.457045078277588">
        <ele>332</ele>
        <time>2004-07-29T18:31:10Z</time>
      </trkpt>
      <trkpt lat="44.377126693725586" lon="11.457109535112977">
        <ele>335</ele>
        <time>2004-07-29T18:31:20Z</time>
      </trkpt>
      <trkpt lat="44.377341270446777" lon="11.457281112670898">
        <ele>339</ele>
        <time>2004-07-29T18:31:32Z</time>
      </trkpt>
      <trkpt lat="44.37753438949585" lon="11.457281112670898">
        <ele>342</ele>
        <time>2004-07-29T18:31:46Z</time>
      </trkpt>
      <trkpt lat="44.377684593200684" lon="11.457173824310303">
        <ele>343</ele>
        <time>2004-07-29T18:32:03Z</time>
      </trkpt>
      <trkpt lat="44.377834796905518" lon="11.45700216293335">
        <ele>341</ele>
        <time>2004-07-29T18:32:23Z</time>
      </trkpt>
      <trkpt lat="44.37802791595459" lon="11.456766128540039">
        <ele>340</ele>
        <time>2004-07-29T18:32:40Z</time>
      </trkpt>
      <trkpt lat="44.378414237871766" lon="11.456444263458252">
        <ele>339</ele>
        <time>2004-07-29T18:32:54Z</time>
      </trkpt>
      <trkpt lat="44.378521358594298" lon="11.456401264294982">
        <ele>339</ele>
        <time>2004-07-29T18:32:57Z</time>
      </trkpt>
      <trkpt lat="44.378929138183594" lon="11.455993736162782">
        <ele>338</ele>
        <time>2004-07-29T18:33:10Z</time>
      </trkpt>
      <trkpt lat="44.379315376281738" lon="11.455607414245605">
        <ele>340</ele>
        <time>2004-07-29T18:33:30Z</time>
      </trkpt>
      <trkpt lat="44.379572868347168" lon="11.455435836687684">
        <ele>343</ele>
        <time>2004-07-29T18:33:43Z</time>
      </trkpt>
      <trkpt lat="44.37976598739624" lon="11.455221176147461">
        <ele>347</ele>
        <time>2004-07-29T18:33:55Z</time>
      </trkpt>
      <trkpt lat="44.379873275756836" lon="11.455135261639953">
        <ele>349</ele>
        <time>2004-07-29T18:34:01Z</time>
      </trkpt>
      <trkpt lat="44.380152225494385" lon="11.45498514175415">
        <ele>351</ele>
        <time>2004-07-29T18:34:17Z</time>
      </trkpt>
      <trkpt lat="44.380602836608887" lon="11.454834938049316">
        <ele>352</ele>
        <time>2004-07-29T18:34:31Z</time>
      </trkpt>
      <trkpt lat="44.381289482116699" lon="11.454448699951172">
        <ele>353</ele>
        <time>2004-07-29T18:34:52Z</time>
      </trkpt>
      <trkpt lat="44.381740093231201" lon="11.454062461853027">
        <ele>356</ele>
        <time>2004-07-29T18:35:07Z</time>
      </trkpt>
      <trkpt lat="44.382040500640869" lon="11.453847885131836">
        <ele>360</ele>
        <time>2004-07-29T18:35:20Z</time>
      </trkpt>
      <trkpt lat="44.382255077362061" lon="11.453611934557557">
        <ele>362</ele>
        <time>2004-07-29T18:35:36Z</time>
      </trkpt>
      <trkpt lat="44.382534027099609" lon="11.453375816345215">
        <ele>362</ele>
        <time>2004-07-29T18:35:55Z</time>
      </trkpt>
      <trkpt lat="44.382920265197754" lon="11.452903663739562">
        <ele>360</ele>
        <time>2004-07-29T18:36:14Z</time>
      </trkpt>
      <trkpt lat="44.383070468902588" lon="11.452538967132568">
        <ele>358</ele>
        <time>2004-07-29T18:36:26Z</time>
      </trkpt>
      <trkpt lat="44.383177841082215" lon="11.452496135607362">
        <ele>357</ele>
        <time>2004-07-29T18:36:40Z</time>
      </trkpt>
      <trkpt lat="44.383606910705566" lon="11.452496135607362">
        <ele>353</ele>
        <time>2004-07-29T18:36:49Z</time>
      </trkpt>
      <trkpt lat="44.383671283721924" lon="11.452496135607362">
        <ele>352</ele>
        <time>2004-07-29T18:36:50Z</time>
      </trkpt>
      <trkpt lat="44.38401460647583" lon="11.452603340148926">
        <ele>346</ele>
        <time>2004-07-29T18:36:54Z</time>
      </trkpt>
      <trkpt lat="44.384164810180664" lon="11.452646339312196">
        <ele>342</ele>
        <time>2004-07-29T18:36:56Z</time>
      </trkpt>
      <trkpt lat="44.384315013885498" lon="11.452753460034728">
        <ele>338</ele>
        <time>2004-07-29T18:36:59Z</time>
      </trkpt>
      <trkpt lat="44.384465217590332" lon="11.452817916870117">
        <ele>334</ele>
        <time>2004-07-29T18:37:04Z</time>
      </trkpt>
      <trkpt lat="44.384636878967285" lon="11.452796459197998">
        <ele>332</ele>
        <time>2004-07-29T18:37:07Z</time>
      </trkpt>
      <trkpt lat="44.384851539507508" lon="11.452775001525879">
        <ele>329</ele>
        <time>2004-07-29T18:37:10Z</time>
      </trkpt>
      <trkpt lat="44.385001659393311" lon="11.452753460034728">
        <ele>326</ele>
        <time>2004-07-29T18:37:12Z</time>
      </trkpt>
      <trkpt lat="44.385108863934875" lon="11.452732086181641">
        <ele>325</ele>
        <time>2004-07-29T18:37:14Z</time>
      </trkpt>
      <trkpt lat="44.385323524475098" lon="11.452667713165283">
        <ele>320</ele>
        <time>2004-07-29T18:37:18Z</time>
      </trkpt>
      <trkpt lat="44.385366439819336" lon="11.452667713165283">
        <ele>319</ele>
        <time>2004-07-29T18:37:19Z</time>
      </trkpt>
      <trkpt lat="44.385623931884766" lon="11.452710628509521">
        <ele>314</ele>
        <time>2004-07-29T18:37:23Z</time>
      </trkpt>
      <trkpt lat="44.385859966278076" lon="11.452710628509521">
        <ele>309</ele>
        <time>2004-07-29T18:37:27Z</time>
      </trkpt>
      <trkpt lat="44.385924339294434" lon="11.452667713165283">
        <ele>309</ele>
        <time>2004-07-29T18:37:28Z</time>
      </trkpt>
      <trkpt lat="44.385988712310791" lon="11.452646339312196">
        <ele>307</ele>
        <time>2004-07-29T18:37:29Z</time>
      </trkpt>
      <trkpt lat="44.386074459180236" lon="11.452581882476807">
        <ele>305</ele>
        <time>2004-07-29T18:37:31Z</time>
      </trkpt>
      <trkpt lat="44.386332035064697" lon="11.452538967132568">
        <ele>301</ele>
        <time>2004-07-29T18:37:35Z</time>
      </trkpt>
      <trkpt lat="44.386568069458008" lon="11.452689170837402">
        <ele>296</ele>
        <time>2004-07-29T18:37:38Z</time>
      </trkpt>
      <trkpt lat="44.386825561523438" lon="11.453075408935547">
        <ele>294</ele>
        <time>2004-07-29T18:37:43Z</time>
      </trkpt>
      <trkpt lat="44.387040138244629" lon="11.453590393066406">
        <ele>294</ele>
        <time>2004-07-29T18:37:54Z</time>
      </trkpt>
      <trkpt lat="44.387083137407899" lon="11.453697681427002">
        <ele>296</ele>
        <time>2004-07-29T18:37:57Z</time>
      </trkpt>
      <trkpt lat="44.387383460998535" lon="11.453933715820313">
        <ele>295</ele>
        <time>2004-07-29T18:38:13Z</time>
      </trkpt>
      <trkpt lat="44.387598037719727" lon="11.454019462689757">
        <ele>291</ele>
        <time>2004-07-29T18:38:22Z</time>
      </trkpt>
      <trkpt lat="44.387619495391846" lon="11.454041004180908">
        <ele>291</ele>
        <time>2004-07-29T18:38:23Z</time>
      </trkpt>
      <trkpt lat="44.387791240587831" lon="11.454083919525146">
        <ele>288</ele>
        <time>2004-07-29T18:38:29Z</time>
      </trkpt>
      <trkpt lat="44.387855529785156" lon="11.454105377197266">
        <ele>287</ele>
        <time>2004-07-29T18:38:31Z</time>
      </trkpt>
      <trkpt lat="44.387962818145752" lon="11.454126834869385">
        <ele>289</ele>
        <time>2004-07-29T18:38:37Z</time>
      </trkpt>
      <trkpt lat="44.388134479522705" lon="11.453890800476074">
        <ele>285</ele>
        <time>2004-07-29T18:38:46Z</time>
      </trkpt>
      <trkpt lat="44.388134479522705" lon="11.453869258984923">
        <ele>285</ele>
        <time>2004-07-29T18:38:47Z</time>
      </trkpt>
      <trkpt lat="44.388327598571777" lon="11.453762138262391">
        <ele>282</ele>
        <time>2004-07-29T18:38:57Z</time>
      </trkpt>
      <trkpt lat="44.388391971588135" lon="11.45374059677124">
        <ele>278</ele>
        <time>2004-07-29T18:38:59Z</time>
      </trkpt>
      <trkpt lat="44.388542175292969" lon="11.453697681427002">
        <ele>275</ele>
        <time>2004-07-29T18:39:06Z</time>
      </trkpt>
      <trkpt lat="44.388606464490294" lon="11.453633308410645">
        <ele>271</ele>
        <time>2004-07-29T18:39:09Z</time>
      </trkpt>
      <trkpt lat="44.388821125030518" lon="11.453375816345215">
        <ele>270</ele>
        <time>2004-07-29T18:39:16Z</time>
      </trkpt>
      <trkpt lat="44.388842582702637" lon="11.453311359509826">
        <ele>269</ele>
        <time>2004-07-29T18:39:17Z</time>
      </trkpt>
      <trkpt lat="44.389100074768066" lon="11.453075408935547">
        <ele>267</ele>
        <time>2004-07-29T18:39:24Z</time>
      </trkpt>
      <trkpt lat="44.389400482177734" lon="11.452860832214355">
        <ele>268</ele>
        <time>2004-07-29T18:39:34Z</time>
      </trkpt>
      <trkpt lat="44.389443397521973" lon="11.452817916870117">
        <ele>271</ele>
        <time>2004-07-29T18:39:39Z</time>
      </trkpt>
      <trkpt lat="44.389486312866211" lon="11.452775001525879">
        <ele>272</ele>
        <time>2004-07-29T18:39:47Z</time>
      </trkpt>
      <trkpt lat="44.389550685882568" lon="11.452710628509521">
        <ele>273</ele>
        <time>2004-07-29T18:40:06Z</time>
      </trkpt>
      <trkpt lat="44.389550685882568" lon="11.452689170837402">
        <ele>273</ele>
        <time>2004-07-29T18:40:42Z</time>
      </trkpt>
      <trkpt lat="44.389550685882568" lon="11.452689170837402">
        <ele>274</ele>
        <time>2004-07-29T18:40:55Z</time>
      </trkpt>
      <trkpt lat="44.389636516571045" lon="11.452646339312196">
        <ele>274</ele>
        <time>2004-07-29T18:41:07Z</time>
      </trkpt>
      <trkpt lat="44.389936923980713" lon="11.452581882476807">
        <ele>277</ele>
        <time>2004-07-29T18:41:25Z</time>
      </trkpt>
      <trkpt lat="44.390237331390381" lon="11.452388763427734">
        <ele>278</ele>
        <time>2004-07-29T18:41:38Z</time>
      </trkpt>
      <trkpt lat="44.390301704406738" lon="11.452345764264464">
        <ele>279</ele>
        <time>2004-07-29T18:41:41Z</time>
      </trkpt>
      <trkpt lat="44.390559196472168" lon="11.452345764264464">
        <ele>283</ele>
        <time>2004-07-29T18:41:55Z</time>
      </trkpt>
      <trkpt lat="44.390559196472168" lon="11.452345764264464">
        <ele>283</ele>
        <time>2004-07-29T18:41:56Z</time>
      </trkpt>
      <trkpt lat="44.390795230865479" lon="11.452388763427734">
        <ele>286</ele>
        <time>2004-07-29T18:42:10Z</time>
      </trkpt>
      <trkpt lat="44.390966892242432" lon="11.452496135607362">
        <ele>289</ele>
        <time>2004-07-29T18:42:22Z</time>
      </trkpt>
      <trkpt lat="44.391031265258789" lon="11.452517509460449">
        <ele>291</ele>
        <time>2004-07-29T18:42:26Z</time>
      </trkpt>
      <trkpt lat="44.391117095947266" lon="11.452581882476807">
        <ele>294</ele>
        <time>2004-07-29T18:42:34Z</time>
      </trkpt>
      <trkpt lat="44.391160011291504" lon="11.452603340148926">
        <ele>295</ele>
        <time>2004-07-29T18:42:37Z</time>
      </trkpt>
      <trkpt lat="44.391353130340576" lon="11.452667713165283">
        <ele>298</ele>
        <time>2004-07-29T18:42:52Z</time>
      </trkpt>
      <trkpt lat="44.391374588012695" lon="11.452667713165283">
        <ele>299</ele>
        <time>2004-07-29T18:42:53Z</time>
      </trkpt>
      <trkpt lat="44.391524791717529" lon="11.452710628509521">
        <ele>302</ele>
        <time>2004-07-29T18:43:05Z</time>
      </trkpt>
      <trkpt lat="44.391632080078125" lon="11.452732086181641">
        <ele>305</ele>
        <time>2004-07-29T18:50:42Z</time>
      </trkpt>
      <trkpt lat="44.391889572143555" lon="11.452817916870117">
        <ele>307</ele>
        <time>2004-07-29T18:50:58Z</time>
      </trkpt>
      <trkpt lat="44.391975402832031" lon="11.452946662902832">
        <ele>309</ele>
        <time>2004-07-29T18:51:05Z</time>
      </trkpt>
      <trkpt lat="44.391911029815674" lon="11.45346156321466">
        <ele>312</ele>
        <time>2004-07-29T18:51:21Z</time>
      </trkpt>
      <trkpt lat="44.391846740618348" lon="11.454105377197266">
        <ele>313</ele>
        <time>2004-07-29T18:51:36Z</time>
      </trkpt>
      <trkpt lat="44.391932487487793" lon="11.454942226409912">
        <ele>315</ele>
        <time>2004-07-29T18:51:53Z</time>
      </trkpt>
      <trkpt lat="44.391975402832031" lon="11.455328464508057">
        <ele>318</ele>
        <time>2004-07-29T18:52:03Z</time>
      </trkpt>
      <trkpt lat="44.39199686050415" lon="11.455714702606201">
        <ele>321</ele>
        <time>2004-07-29T18:52:16Z</time>
      </trkpt>
      <trkpt lat="44.392039775848389" lon="11.455972194671631">
        <ele>325</ele>
        <time>2004-07-29T18:52:25Z</time>
      </trkpt>
      <trkpt lat="44.392082691192627" lon="11.456294059753418">
        <ele>328</ele>
        <time>2004-07-29T18:52:38Z</time>
      </trkpt>
      <trkpt lat="44.392082691192627" lon="11.456315517425537">
        <ele>328</ele>
        <time>2004-07-29T18:52:39Z</time>
      </trkpt>
      <trkpt lat="44.392125606536865" lon="11.456615924835205">
        <ele>331</ele>
        <time>2004-07-29T18:52:52Z</time>
      </trkpt>
      <trkpt lat="44.392168521881104" lon="11.456701839342713">
        <ele>332</ele>
        <time>2004-07-29T18:52:57Z</time>
      </trkpt>
      <trkpt lat="44.392189979553223" lon="11.456808960065246">
        <ele>334</ele>
        <time>2004-07-29T18:53:02Z</time>
      </trkpt>
      <trkpt lat="44.392168521881104" lon="11.456830501556396">
        <ele>334</ele>
        <time>2004-07-29T18:53:03Z</time>
      </trkpt>
      <trkpt lat="44.392232894897461" lon="11.457023620605469">
        <ele>336</ele>
        <time>2004-07-29T18:53:15Z</time>
      </trkpt>
      <trkpt lat="44.392254436388612" lon="11.457173824310303">
        <ele>337</ele>
        <time>2004-07-29T18:53:24Z</time>
      </trkpt>
      <trkpt lat="44.392361640930176" lon="11.457474231719971">
        <ele>340</ele>
        <time>2004-07-29T18:53:40Z</time>
      </trkpt>
      <trkpt lat="44.392447471618652" lon="11.457839012145996">
        <ele>341</ele>
        <time>2004-07-29T18:53:55Z</time>
      </trkpt>
      <trkpt lat="44.392704963684082" lon="11.458375537768006">
        <ele>338</ele>
        <time>2004-07-29T18:54:06Z</time>
      </trkpt>
      <trkpt lat="44.39326286315918" lon="11.459555625915527">
        <ele>337</ele>
        <time>2004-07-29T18:54:21Z</time>
      </trkpt>
      <trkpt lat="44.393627559766173" lon="11.460006237030029">
        <ele>337</ele>
        <time>2004-07-29T18:54:33Z</time>
      </trkpt>
      <trkpt lat="44.393949508666992" lon="11.460199439898133">
        <ele>338</ele>
        <time>2004-07-29T18:54:41Z</time>
      </trkpt>
      <trkpt lat="44.394228458404541" lon="11.460607135668397">
        <ele>340</ele>
        <time>2004-07-29T18:54:51Z</time>
      </trkpt>
      <trkpt lat="44.394593238830566" lon="11.461422359570861">
        <ele>338</ele>
        <time>2004-07-29T18:55:03Z</time>
      </trkpt>
      <trkpt lat="44.39476490020752" lon="11.461701393127441">
        <ele>336</ele>
        <time>2004-07-29T18:55:06Z</time>
      </trkpt>
      <trkpt lat="44.395022392272949" lon="11.461873138323426">
        <ele>335</ele>
        <time>2004-07-29T18:55:09Z</time>
      </trkpt>
      <trkpt lat="44.395987987518311" lon="11.462001800537109">
        <ele>337</ele>
        <time>2004-07-29T18:55:21Z</time>
      </trkpt>
      <trkpt lat="44.396266937255859" lon="11.461980259045959">
        <ele>337</ele>
        <time>2004-07-29T18:55:25Z</time>
      </trkpt>
      <trkpt lat="44.396352767944336" lon="11.461915969848633">
        <ele>337</ele>
        <time>2004-07-29T18:55:27Z</time>
      </trkpt>
      <trkpt lat="44.396460140123963" lon="11.461508274078369">
        <ele>336</ele>
        <time>2004-07-29T18:55:33Z</time>
      </trkpt>
      <trkpt lat="44.396696090698242" lon="11.460714340209961">
        <ele>333</ele>
        <time>2004-07-29T18:55:42Z</time>
      </trkpt>
      <trkpt lat="44.396824836730957" lon="11.460328102111816">
        <ele>328</ele>
        <time>2004-07-29T18:55:46Z</time>
      </trkpt>
      <trkpt lat="44.397039413452148" lon="11.459791660308838">
        <ele>325</ele>
        <time>2004-07-29T18:55:52Z</time>
      </trkpt>
      <trkpt lat="44.39749002456665" lon="11.459705829620361">
        <ele>323</ele>
        <time>2004-07-29T18:55:58Z</time>
      </trkpt>
      <trkpt lat="44.398026466369629" lon="11.45972728729248">
        <ele>321</ele>
        <time>2004-07-29T18:56:04Z</time>
      </trkpt>
      <trkpt lat="44.398927688598633" lon="11.459770202636719">
        <ele>321</ele>
        <time>2004-07-29T18:56:16Z</time>
      </trkpt>
      <trkpt lat="44.399228096008301" lon="11.45972728729248">
        <ele>323</ele>
        <time>2004-07-29T18:56:22Z</time>
      </trkpt>
      <trkpt lat="44.399914741516113" lon="11.459298133850098">
        <ele>323</ele>
        <time>2004-07-29T18:56:36Z</time>
      </trkpt>
      <trkpt lat="44.40075159072876" lon="11.459298133850098">
        <ele>324</ele>
        <time>2004-07-29T18:56:52Z</time>
      </trkpt>
      <trkpt lat="44.401223659515381" lon="11.459276676177979">
        <ele>323</ele>
        <time>2004-07-29T18:56:59Z</time>
      </trkpt>
      <trkpt lat="44.401352405548096" lon="11.459212303161621">
        <ele>321</ele>
        <time>2004-07-29T18:57:01Z</time>
      </trkpt>
      <trkpt lat="44.401652812957764" lon="11.458890438079834">
        <ele>323</ele>
        <time>2004-07-29T18:57:07Z</time>
      </trkpt>
      <trkpt lat="44.402597034350038" lon="11.458160877227783">
        <ele>325</ele>
        <time>2004-07-29T18:57:27Z</time>
      </trkpt>
      <trkpt lat="44.403262138366699" lon="11.457388401031494">
        <ele>323</ele>
        <time>2004-07-29T18:57:44Z</time>
      </trkpt>
      <trkpt lat="44.403863037005067" lon="11.456358432769775">
        <ele>321</ele>
        <time>2004-07-29T18:58:00Z</time>
      </trkpt>
      <trkpt lat="44.404506683349609" lon="11.455371379852295">
        <ele>317</ele>
        <time>2004-07-29T18:58:13Z</time>
      </trkpt>
      <trkpt lat="44.404571140184999" lon="11.455264091491699">
        <ele>316</ele>
        <time>2004-07-29T18:58:14Z</time>
      </trkpt>
      <trkpt lat="44.404721260070801" lon="11.454920768737793">
        <ele>315</ele>
        <time>2004-07-29T18:58:17Z</time>
      </trkpt>
      <trkpt lat="44.404850006103516" lon="11.454706192016602">
        <ele>313</ele>
        <time>2004-07-29T18:58:19Z</time>
      </trkpt>
      <trkpt lat="44.405300617218018" lon="11.45399808883667">
        <ele>310</ele>
        <time>2004-07-29T18:58:26Z</time>
      </trkpt>
      <trkpt lat="44.40575122833252" lon="11.453161239624023">
        <ele>308</ele>
        <time>2004-07-29T18:58:35Z</time>
      </trkpt>
      <trkpt lat="44.405901432037354" lon="11.453032493591309">
        <ele>309</ele>
        <time>2004-07-29T18:58:37Z</time>
      </trkpt>
      <trkpt lat="44.406201839447021" lon="11.452903663739562">
        <ele>311</ele>
        <time>2004-07-29T18:58:41Z</time>
      </trkpt>
      <trkpt lat="44.406545162200928" lon="11.45226001739502">
        <ele>308</ele>
        <time>2004-07-29T18:58:49Z</time>
      </trkpt>
      <trkpt lat="44.406545162200928" lon="11.452023983001709">
        <ele>308</ele>
        <time>2004-07-29T18:58:51Z</time>
      </trkpt>
      <trkpt lat="44.406523704528809" lon="11.451444625854492">
        <ele>306</ele>
        <time>2004-07-29T18:58:56Z</time>
      </trkpt>
      <trkpt lat="44.406523704528809" lon="11.449813758954406">
        <ele>307</ele>
        <time>2004-07-29T18:59:11Z</time>
      </trkpt>
      <trkpt lat="44.406566619873047" lon="11.449255859479308">
        <ele>309</ele>
        <time>2004-07-29T18:59:21Z</time>
      </trkpt>
      <trkpt lat="44.406588077545166" lon="11.449084281921387">
        <ele>312</ele>
        <time>2004-07-29T18:59:27Z</time>
      </trkpt>
      <trkpt lat="44.406652534380555" lon="11.448655128479004">
        <ele>315</ele>
        <time>2004-07-29T18:59:42Z</time>
      </trkpt>
      <trkpt lat="44.406652534380555" lon="11.448397636413574">
        <ele>319</ele>
        <time>2004-07-29T18:59:53Z</time>
      </trkpt>
      <trkpt lat="44.406652534380555" lon="11.448376178741455">
        <ele>319</ele>
        <time>2004-07-29T18:59:54Z</time>
      </trkpt>
      <trkpt lat="44.406652534380555" lon="11.448075771331787">
        <ele>322</ele>
        <time>2004-07-29T19:00:08Z</time>
      </trkpt>
      <trkpt lat="44.406695365905762" lon="11.447861194610596">
        <ele>325</ele>
        <time>2004-07-29T19:00:18Z</time>
      </trkpt>
      <trkpt lat="44.406695365905762" lon="11.447818279266357">
        <ele>325</ele>
        <time>2004-07-29T19:00:19Z</time>
      </trkpt>
      <trkpt lat="44.406695365905762" lon="11.447346210479736">
        <ele>329</ele>
        <time>2004-07-29T19:00:39Z</time>
      </trkpt>
      <trkpt lat="44.406673908233643" lon="11.446917140856385">
        <ele>330</ele>
        <time>2004-07-29T19:00:55Z</time>
      </trkpt>
      <trkpt lat="44.406781196594238" lon="11.446359241381288">
        <ele>331</ele>
        <time>2004-07-29T19:01:13Z</time>
      </trkpt>
      <trkpt lat="44.407017230987549" lon="11.445930004119873">
        <ele>330</ele>
        <time>2004-07-29T19:01:29Z</time>
      </trkpt>
      <trkpt lat="44.407296180725098" lon="11.445350563153625">
        <ele>328</ele>
        <time>2004-07-29T19:01:39Z</time>
      </trkpt>
      <trkpt lat="44.407403469085693" lon="11.444320678710937">
        <ele>331</ele>
        <time>2004-07-29T19:01:53Z</time>
      </trkpt>
      <trkpt lat="44.407446384429932" lon="11.443934440612793">
        <ele>332</ele>
        <time>2004-07-29T19:01:59Z</time>
      </trkpt>
      <trkpt lat="44.40748929977417" lon="11.443419540300965">
        <ele>332</ele>
        <time>2004-07-29T19:02:07Z</time>
      </trkpt>
      <trkpt lat="44.40772533416748" lon="11.443312168121338">
        <ele>332</ele>
        <time>2004-07-29T19:02:14Z</time>
      </trkpt>
      <trkpt lat="44.4077467918396" lon="11.443355083465576">
        <ele>333</ele>
        <time>2004-07-29T19:02:15Z</time>
      </trkpt>
      <trkpt lat="44.408068740740418" lon="11.443655490875244">
        <ele>336</ele>
        <time>2004-07-29T19:02:25Z</time>
      </trkpt>
      <trkpt lat="44.408133029937744" lon="11.443698406219482">
        <ele>337</ele>
        <time>2004-07-29T19:02:27Z</time>
      </trkpt>
      <trkpt lat="44.408562183380127" lon="11.443569660186768">
        <ele>339</ele>
        <time>2004-07-29T19:02:42Z</time>
      </trkpt>
      <trkpt lat="44.40899133682251" lon="11.443033218383789">
        <ele>340</ele>
        <time>2004-07-29T19:03:01Z</time>
      </trkpt>
      <trkpt lat="44.409313201904297" lon="11.442775726318359">
        <ele>339</ele>
        <time>2004-07-29T19:03:10Z</time>
      </trkpt>
      <trkpt lat="44.409506320953369" lon="11.442432403564453">
        <ele>335</ele>
        <time>2004-07-29T19:03:15Z</time>
      </trkpt>
      <trkpt lat="44.409635066986084" lon="11.442174911499023">
        <ele>331</ele>
        <time>2004-07-29T19:03:18Z</time>
      </trkpt>
      <trkpt lat="44.409720897674561" lon="11.441981792449951">
        <ele>327</ele>
        <time>2004-07-29T19:03:21Z</time>
      </trkpt>
      <trkpt lat="44.409720897674561" lon="11.441960334777832">
        <ele>326</ele>
        <time>2004-07-29T19:03:22Z</time>
      </trkpt>
      <trkpt lat="44.409742439165711" lon="11.441895961761475">
        <ele>326</ele>
        <time>2004-07-29T19:03:24Z</time>
      </trkpt>
      <trkpt lat="44.409785270690918" lon="11.441810131072998">
        <ele>325</ele>
        <time>2004-07-29T19:03:26Z</time>
      </trkpt>
      <trkpt lat="44.409956932067871" lon="11.441423892974854">
        <ele>321</ele>
        <time>2004-07-29T19:03:31Z</time>
      </trkpt>
      <trkpt lat="44.410128593444824" lon="11.441102027893066">
        <ele>317</ele>
        <time>2004-07-29T19:03:35Z</time>
      </trkpt>
      <trkpt lat="44.410214424133301" lon="11.440801620483398">
        <ele>316</ele>
        <time>2004-07-29T19:03:38Z</time>
      </trkpt>
      <trkpt lat="44.410836696624756" lon="11.440351009368896">
        <ele>312</ele>
        <time>2004-07-29T19:03:49Z</time>
      </trkpt>
      <trkpt lat="44.411072731018066" lon="11.440222263336182">
        <ele>309</ele>
        <time>2004-07-29T19:03:52Z</time>
      </trkpt>
      <trkpt lat="44.411416137591004" lon="11.440029060468078">
        <ele>306</ele>
        <time>2004-07-29T19:03:57Z</time>
      </trkpt>
      <trkpt lat="44.412252902984619" lon="11.439449787139893">
        <ele>304</ele>
        <time>2004-07-29T19:04:12Z</time>
      </trkpt>
      <trkpt lat="44.412381565198302" lon="11.439042091369629">
        <ele>301</ele>
        <time>2004-07-29T19:04:22Z</time>
      </trkpt>
      <trkpt lat="44.412446022033691" lon="11.438913261517882">
        <ele>300</ele>
        <time>2004-07-29T19:04:25Z</time>
      </trkpt>
      <trkpt lat="44.4125319365412" lon="11.438720226287842">
        <ele>297</ele>
        <time>2004-07-29T19:04:29Z</time>
      </trkpt>
      <trkpt lat="44.412596225738525" lon="11.438634395599365">
        <ele>296</ele>
        <time>2004-07-29T19:04:31Z</time>
      </trkpt>
      <trkpt lat="44.413154125213623" lon="11.438098037615418">
        <ele>292</ele>
        <time>2004-07-29T19:04:40Z</time>
      </trkpt>
      <trkpt lat="44.413282871246338" lon="11.437969207763672">
        <ele>290</ele>
        <time>2004-07-29T19:04:42Z</time>
      </trkpt>
      <trkpt lat="44.413411617279053" lon="11.437947833910584">
        <ele>289</ele>
        <time>2004-07-29T19:04:45Z</time>
      </trkpt>
      <trkpt lat="44.413518905639648" lon="11.437969207763672">
        <ele>285</ele>
        <time>2004-07-29T19:04:48Z</time>
      </trkpt>
      <trkpt lat="44.413604736328125" lon="11.437990665435791">
        <ele>282</ele>
        <time>2004-07-29T19:04:51Z</time>
      </trkpt>
      <trkpt lat="44.413604736328125" lon="11.43801212310791">
        <ele>281</ele>
        <time>2004-07-29T19:04:52Z</time>
      </trkpt>
      <trkpt lat="44.413647735491395" lon="11.438076496124268">
        <ele>279</ele>
        <time>2004-07-29T19:04:54Z</time>
      </trkpt>
      <trkpt lat="44.413712024688721" lon="11.438205158337951">
        <ele>276</ele>
        <time>2004-07-29T19:04:57Z</time>
      </trkpt>
      <trkpt lat="44.413754940032959" lon="11.438355362042785">
        <ele>275</ele>
        <time>2004-07-29T19:05:00Z</time>
      </trkpt>
      <trkpt lat="44.413948059082031" lon="11.438827514648438">
        <ele>271</ele>
        <time>2004-07-29T19:05:16Z</time>
      </trkpt>
      <trkpt lat="44.414141178131104" lon="11.439063465222716">
        <ele>268</ele>
        <time>2004-07-29T19:05:24Z</time>
      </trkpt>
      <trkpt lat="44.414462959393859" lon="11.439385414123535">
        <ele>265</ele>
        <time>2004-07-29T19:05:34Z</time>
      </trkpt>
      <trkpt lat="44.414505958557129" lon="11.439535617828369">
        <ele>264</ele>
        <time>2004-07-29T19:05:38Z</time>
      </trkpt>
      <trkpt lat="44.414784908294678" lon="11.439685821533203">
        <ele>261</ele>
        <time>2004-07-29T19:05:45Z</time>
      </trkpt>
      <trkpt lat="44.414827823638916" lon="11.439728736877441">
        <ele>261</ele>
        <time>2004-07-29T19:05:46Z</time>
      </trkpt>
      <trkpt lat="44.414956569671631" lon="11.439728736877441">
        <ele>259</ele>
        <time>2004-07-29T19:05:49Z</time>
      </trkpt>
      <trkpt lat="44.415085315704346" lon="11.439707279205322">
        <ele>258</ele>
        <time>2004-07-29T19:05:52Z</time>
      </trkpt>
      <trkpt lat="44.415407180786133" lon="11.439793109893799">
        <ele>260</ele>
        <time>2004-07-29T19:06:03Z</time>
      </trkpt>
      <trkpt lat="44.415728962048888" lon="11.439878940582275">
        <ele>256</ele>
        <time>2004-07-29T19:06:14Z</time>
      </trkpt>
      <trkpt lat="44.41622257232666" lon="11.439921939745545">
        <ele>255</ele>
        <time>2004-07-29T19:06:28Z</time>
      </trkpt>
      <trkpt lat="44.416458606719971" lon="11.440029060468078">
        <ele>253</ele>
        <time>2004-07-29T19:06:38Z</time>
      </trkpt>
      <trkpt lat="44.416501522064209" lon="11.440136432647705">
        <ele>251</ele>
        <time>2004-07-29T19:06:47Z</time>
      </trkpt>
      <trkpt lat="44.416673183441162" lon="11.440415382385254">
        <ele>247</ele>
        <time>2004-07-29T19:08:19Z</time>
      </trkpt>
      <trkpt lat="44.41697359085083" lon="11.440329635515809">
        <ele>244</ele>
        <time>2004-07-29T19:08:32Z</time>
      </trkpt>
      <trkpt lat="44.417102336883545" lon="11.440308094024658">
        <ele>241</ele>
        <time>2004-07-29T19:08:36Z</time>
      </trkpt>
      <trkpt lat="44.417166709899902" lon="11.440329635515809">
        <ele>239</ele>
        <time>2004-07-29T19:08:38Z</time>
      </trkpt>
      <trkpt lat="44.417316913604736" lon="11.440458297729492">
        <ele>239</ele>
        <time>2004-07-29T19:08:42Z</time>
      </trkpt>
      <trkpt lat="44.417574405670166" lon="11.440672874450684">
        <ele>238</ele>
        <time>2004-07-29T19:08:53Z</time>
      </trkpt>
      <trkpt lat="44.417703235521913" lon="11.440801620483398">
        <ele>237</ele>
        <time>2004-07-29T19:08:57Z</time>
      </trkpt>
      <trkpt lat="44.417853439226747" lon="11.440844535827637">
        <ele>235</ele>
        <time>2004-07-29T19:09:01Z</time>
      </trkpt>
      <trkpt lat="44.41798210144043" lon="11.440865993499756">
        <ele>234</ele>
        <time>2004-07-29T19:09:04Z</time>
      </trkpt>
      <trkpt lat="44.418411338701844" lon="11.440823078155518">
        <ele>234</ele>
        <time>2004-07-29T19:09:14Z</time>
      </trkpt>
      <trkpt lat="44.41847562789917" lon="11.440823078155518">
        <ele>232</ele>
        <time>2004-07-29T19:09:15Z</time>
      </trkpt>
      <trkpt lat="44.418776035308838" lon="11.440737163648009">
        <ele>231</ele>
        <time>2004-07-29T19:09:19Z</time>
      </trkpt>
      <trkpt lat="44.419076358899474" lon="11.440737163648009">
        <ele>229</ele>
        <time>2004-07-29T19:09:24Z</time>
      </trkpt>
      <trkpt lat="44.419376933947206" lon="11.440908908843994">
        <ele>227</ele>
        <time>2004-07-29T19:09:34Z</time>
      </trkpt>
      <trkpt lat="44.419848918914795" lon="11.441230773925781">
        <ele>229</ele>
        <time>2004-07-29T19:09:52Z</time>
      </trkpt>
      <trkpt lat="44.420085037127137" lon="11.441466808319092">
        <ele>229</ele>
        <time>2004-07-29T19:10:05Z</time>
      </trkpt>
      <trkpt lat="44.420278072357178" lon="11.441745841875672">
        <ele>228</ele>
        <time>2004-07-29T19:10:21Z</time>
      </trkpt>
      <trkpt lat="44.420320987701416" lon="11.441874504089355">
        <ele>226</ele>
        <time>2004-07-29T19:10:26Z</time>
      </trkpt>
      <trkpt lat="44.420363903045654" lon="11.442067623138428">
        <ele>223</ele>
        <time>2004-07-29T19:10:31Z</time>
      </trkpt>
      <trkpt lat="44.420428276062012" lon="11.44230374135077">
        <ele>220</ele>
        <time>2004-07-29T19:10:36Z</time>
      </trkpt>
      <trkpt lat="44.420492565259337" lon="11.442453861236572">
        <ele>218</ele>
        <time>2004-07-29T19:10:40Z</time>
      </trkpt>
      <trkpt lat="44.420599937438965" lon="11.442561065778136">
        <ele>216</ele>
        <time>2004-07-29T19:10:44Z</time>
      </trkpt>
      <trkpt lat="44.420814514160156" lon="11.44275426864624">
        <ele>214</ele>
        <time>2004-07-29T19:10:51Z</time>
      </trkpt>
      <trkpt lat="44.42096471786499" lon="11.442883014678955">
        <ele>212</ele>
        <time>2004-07-29T19:10:55Z</time>
      </trkpt>
      <trkpt lat="44.421265125274658" lon="11.44301176071167">
        <ele>210</ele>
        <time>2004-07-29T19:11:02Z</time>
      </trkpt>
      <trkpt lat="44.421458160504699" lon="11.442990303039551">
        <ele>209</ele>
        <time>2004-07-29T19:11:05Z</time>
      </trkpt>
      <trkpt lat="44.421737194061279" lon="11.442904472351074">
        <ele>205</ele>
        <time>2004-07-29T19:11:08Z</time>
      </trkpt>
      <trkpt lat="44.422037601470947" lon="11.442861640825868">
        <ele>202</ele>
        <time>2004-07-29T19:11:11Z</time>
      </trkpt>
      <trkpt lat="44.422144889831543" lon="11.442861640825868">
        <ele>202</ele>
        <time>2004-07-29T19:11:12Z</time>
      </trkpt>
      <trkpt lat="44.42223072052002" lon="11.442840099334717">
        <ele>202</ele>
        <time>2004-07-29T19:11:13Z</time>
      </trkpt>
      <trkpt lat="44.42296028137207" lon="11.443054676055908">
        <ele>198</ele>
        <time>2004-07-29T19:11:21Z</time>
      </trkpt>
      <trkpt lat="44.423561096191406" lon="11.443355083465576">
        <ele>200</ele>
        <time>2004-07-29T19:11:32Z</time>
      </trkpt>
      <trkpt lat="44.42396879196167" lon="11.44350528717041">
        <ele>199</ele>
        <time>2004-07-29T19:11:45Z</time>
      </trkpt>
      <trkpt lat="44.423990165814757" lon="11.443526661023498">
        <ele>199</ele>
        <time>2004-07-29T19:11:46Z</time>
      </trkpt>
      <trkpt lat="44.424033164978027" lon="11.443655490875244">
        <ele>195</ele>
        <time>2004-07-29T19:11:49Z</time>
      </trkpt>
      <trkpt lat="44.424140537157655" lon="11.443912982940674">
        <ele>192</ele>
        <time>2004-07-29T19:11:53Z</time>
      </trkpt>
      <trkpt lat="44.424183368682861" lon="11.44402027130127">
        <ele>189</ele>
        <time>2004-07-29T19:11:55Z</time>
      </trkpt>
      <trkpt lat="44.424312114715576" lon="11.44425630569458">
        <ele>185</ele>
        <time>2004-07-29T19:11:59Z</time>
      </trkpt>
      <trkpt lat="44.424548065289855" lon="11.444427967071533">
        <ele>182</ele>
        <time>2004-07-29T19:12:04Z</time>
      </trkpt>
      <trkpt lat="44.424655437469482" lon="11.444449424743652">
        <ele>182</ele>
        <time>2004-07-29T19:12:06Z</time>
      </trkpt>
      <trkpt lat="44.425020217895508" lon="11.444449424743652">
        <ele>179</ele>
        <time>2004-07-29T19:12:12Z</time>
      </trkpt>
      <trkpt lat="44.425084590911865" lon="11.444449424743652">
        <ele>178</ele>
        <time>2004-07-29T19:12:14Z</time>
      </trkpt>
      <trkpt lat="44.42521333694458" lon="11.444535339251161">
        <ele>178</ele>
        <time>2004-07-29T19:12:21Z</time>
      </trkpt>
      <trkpt lat="44.425556659698486" lon="11.444835662841797">
        <ele>178</ele>
        <time>2004-07-29T19:12:32Z</time>
      </trkpt>
      <trkpt lat="44.426393508911133" lon="11.445672512054443">
        <ele>178</ele>
        <time>2004-07-29T19:12:51Z</time>
      </trkpt>
      <trkpt lat="44.426543712615967" lon="11.445887088775635">
        <ele>174</ele>
        <time>2004-07-29T19:12:55Z</time>
      </trkpt>
      <trkpt lat="44.426586627960205" lon="11.445951461791992">
        <ele>173</ele>
        <time>2004-07-29T19:12:56Z</time>
      </trkpt>
      <trkpt lat="44.426672458648682" lon="11.446444988250732">
        <ele>170</ele>
        <time>2004-07-29T19:13:01Z</time>
      </trkpt>
      <trkpt lat="44.426736831665039" lon="11.446702480316162">
        <ele>168</ele>
        <time>2004-07-29T19:13:03Z</time>
      </trkpt>
      <trkpt lat="44.426908493041992" lon="11.447217464447021">
        <ele>164</ele>
        <time>2004-07-29T19:13:07Z</time>
      </trkpt>
      <trkpt lat="44.427015781402588" lon="11.447432041168213">
        <ele>162</ele>
        <time>2004-07-29T19:13:09Z</time>
      </trkpt>
      <trkpt lat="44.42720890045166" lon="11.447646617889404">
        <ele>158</ele>
        <time>2004-07-29T19:13:12Z</time>
      </trkpt>
      <trkpt lat="44.427423477172852" lon="11.447582161054015">
        <ele>154</ele>
        <time>2004-07-29T19:13:16Z</time>
      </trkpt>
      <trkpt lat="44.42795991897583" lon="11.44625186920166">
        <ele>152</ele>
        <time>2004-07-29T19:13:30Z</time>
      </trkpt>
      <trkpt lat="44.428002834320068" lon="11.446144580841064">
        <ele>151</ele>
        <time>2004-07-29T19:13:31Z</time>
      </trkpt>
      <trkpt lat="44.428453361615539" lon="11.446037292480469">
        <ele>148</ele>
        <time>2004-07-29T19:13:37Z</time>
      </trkpt>
      <trkpt lat="44.42875393666327" lon="11.446209037676454">
        <ele>144</ele>
        <time>2004-07-29T19:13:40Z</time>
      </trkpt>
      <trkpt lat="44.429118633270264" lon="11.446402072906494">
        <ele>140</ele>
        <time>2004-07-29T19:13:43Z</time>
      </trkpt>
      <trkpt lat="44.429354667663574" lon="11.446530818939209">
        <ele>136</ele>
        <time>2004-07-29T19:13:45Z</time>
      </trkpt>
      <trkpt lat="44.429740905761719" lon="11.446723937988281">
        <ele>131</ele>
        <time>2004-07-29T19:13:48Z</time>
      </trkpt>
      <trkpt lat="44.429934024810791" lon="11.446831226348877">
        <ele>127</ele>
        <time>2004-07-29T19:13:50Z</time>
      </trkpt>
      <trkpt lat="44.430084228515625" lon="11.446917140856385">
        <ele>123</ele>
        <time>2004-07-29T19:13:52Z</time>
      </trkpt>
      <trkpt lat="44.430384635925293" lon="11.446788311004639">
        <ele>117</ele>
        <time>2004-07-29T19:13:56Z</time>
      </trkpt>
      <trkpt lat="44.430534839630127" lon="11.446766937151551">
        <ele>113</ele>
        <time>2004-07-29T19:13:58Z</time>
      </trkpt>
      <trkpt lat="44.430856704711914" lon="11.446809768676758">
        <ele>106</ele>
        <time>2004-07-29T19:14:02Z</time>
      </trkpt>
      <trkpt lat="44.431006908416748" lon="11.446659564971924">
        <ele>104</ele>
        <time>2004-07-29T19:14:04Z</time>
      </trkpt>
      <trkpt lat="44.431157112121582" lon="11.446423530578613">
        <ele>101</ele>
        <time>2004-07-29T19:14:06Z</time>
      </trkpt>
      <trkpt lat="44.431178569793701" lon="11.44605883397162">
        <ele>96</ele>
        <time>2004-07-29T19:14:10Z</time>
      </trkpt>
      <trkpt lat="44.431285858154297" lon="11.445608139038086">
        <ele>94</ele>
        <time>2004-07-29T19:14:15Z</time>
      </trkpt>
      <trkpt lat="44.431500434875488" lon="11.445329189300537">
        <ele>93</ele>
        <time>2004-07-29T19:14:19Z</time>
      </trkpt>
      <trkpt lat="44.432144165039063" lon="11.444578170776367">
        <ele>90</ele>
        <time>2004-07-29T19:14:30Z</time>
      </trkpt>
      <trkpt lat="44.43265906535089" lon="11.443955898284912">
        <ele>89</ele>
        <time>2004-07-29T19:14:39Z</time>
      </trkpt>
      <trkpt lat="44.433045387268066" lon="11.443548202514648">
        <ele>88</ele>
        <time>2004-07-29T19:14:47Z</time>
      </trkpt>
      <trkpt lat="44.433238506317139" lon="11.443591117858887">
        <ele>87</ele>
        <time>2004-07-29T19:14:51Z</time>
      </trkpt>
      <trkpt lat="44.433517539873719" lon="11.443870067596436">
        <ele>87</ele>
        <time>2004-07-29T19:14:56Z</time>
      </trkpt>
      <trkpt lat="44.434611797332764" lon="11.44425630569458">
        <ele>86</ele>
        <time>2004-07-29T19:15:08Z</time>
      </trkpt>
      <trkpt lat="44.435641765594482" lon="11.444320678710937">
        <ele>84</ele>
        <time>2004-07-29T19:15:19Z</time>
      </trkpt>
      <trkpt lat="44.43695068359375" lon="11.444943035021424">
        <ele>83</ele>
        <time>2004-07-29T19:15:36Z</time>
      </trkpt>
      <trkpt lat="44.43845272064209" lon="11.445586681365967">
        <ele>82</ele>
        <time>2004-07-29T19:15:56Z</time>
      </trkpt>
      <trkpt lat="44.439933300018311" lon="11.446209037676454">
        <ele>83</ele>
        <time>2004-07-29T19:16:18Z</time>
      </trkpt>
      <trkpt lat="44.441263675689697" lon="11.4467453956604">
        <ele>82</ele>
        <time>2004-07-29T19:16:37Z</time>
      </trkpt>
      <trkpt lat="44.442873001098633" lon="11.447131633758545">
        <ele>79</ele>
        <time>2004-07-29T19:16:58Z</time>
      </trkpt>
      <trkpt lat="44.443860137835145" lon="11.44700288772583">
        <ele>78</ele>
        <time>2004-07-29T19:17:11Z</time>
      </trkpt>
      <trkpt lat="44.444117462262511" lon="11.447110176086426">
        <ele>79</ele>
        <time>2004-07-29T19:17:15Z</time>
      </trkpt>
      <trkpt lat="44.444589614868164" lon="11.446938514709473">
        <ele>79</ele>
        <time>2004-07-29T19:17:23Z</time>
      </trkpt>
      <trkpt lat="44.444632530212402" lon="11.4467453956604">
        <ele>79</ele>
        <time>2004-07-29T19:17:25Z</time>
      </trkpt>
      <trkpt lat="44.445168972015381" lon="11.445758258923888">
        <ele>77</ele>
        <time>2004-07-29T19:17:36Z</time>
      </trkpt>
      <trkpt lat="44.445619583129883" lon="11.445071697235107">
        <ele>75</ele>
        <time>2004-07-29T19:17:43Z</time>
      </trkpt>
      <trkpt lat="44.44617748260498" lon="11.443612575531006">
        <ele>74</ele>
        <time>2004-07-29T19:17:56Z</time>
      </trkpt>
      <trkpt lat="44.446392059326172" lon="11.44176721572876">
        <ele>72</ele>
        <time>2004-07-29T19:18:11Z</time>
      </trkpt>
      <trkpt lat="44.446585178375244" lon="11.439664363861084">
        <ele>71</ele>
        <time>2004-07-29T19:18:27Z</time>
      </trkpt>
      <trkpt lat="44.44692850112915" lon="11.437625885009766">
        <ele>72</ele>
        <time>2004-07-29T19:18:43Z</time>
      </trkpt>
      <trkpt lat="44.447529315948486" lon="11.435329914093018">
        <ele>74</ele>
        <time>2004-07-29T19:19:03Z</time>
      </trkpt>
      <trkpt lat="44.447829723358154" lon="11.434149658307433">
        <ele>71</ele>
        <time>2004-07-29T19:19:13Z</time>
      </trkpt>
      <trkpt lat="44.448022758588195" lon="11.433420181274414">
        <ele>69</ele>
        <time>2004-07-29T19:19:19Z</time>
      </trkpt>
      <trkpt lat="44.448494911193848" lon="11.431617736816406">
        <ele>70</ele>
        <time>2004-07-29T19:19:36Z</time>
      </trkpt>
      <trkpt lat="44.44894552230835" lon="11.429922580718994">
        <ele>72</ele>
        <time>2004-07-29T19:19:55Z</time>
      </trkpt>
      <trkpt lat="44.449481964111328" lon="11.427948474884033">
        <ele>74</ele>
        <time>2004-07-29T19:20:18Z</time>
      </trkpt>
      <trkpt lat="44.450168609619141" lon="11.427175998687744">
        <ele>75</ele>
        <time>2004-07-29T19:20:32Z</time>
      </trkpt>
      <trkpt lat="44.451305866241455" lon="11.425995826721191">
        <ele>76</ele>
        <time>2004-07-29T19:20:53Z</time>
      </trkpt>
      <trkpt lat="44.452571868896484" lon="11.425266265869141">
        <ele>76</ele>
        <time>2004-07-29T19:21:12Z</time>
      </trkpt>
      <trkpt lat="44.453795040026307" lon="11.424407958984375">
        <ele>75</ele>
        <time>2004-07-29T19:21:28Z</time>
      </trkpt>
      <trkpt lat="44.45493221282959" lon="11.423377990722656">
        <ele>75</ele>
        <time>2004-07-29T19:21:44Z</time>
      </trkpt>
      <trkpt lat="44.4554687384516" lon="11.423227787017822">
        <ele>75</ele>
        <time>2004-07-29T19:21:51Z</time>
      </trkpt>
      <trkpt lat="44.455618858337402" lon="11.422755718231201">
        <ele>74</ele>
        <time>2004-07-29T19:21:56Z</time>
      </trkpt>
      <trkpt lat="44.455790519714355" lon="11.422476768493652">
        <ele>75</ele>
        <time>2004-07-29T19:21:59Z</time>
      </trkpt>
      <trkpt lat="44.456691658124328" lon="11.421511173248291">
        <ele>71</ele>
        <time>2004-07-29T19:22:12Z</time>
      </trkpt>
      <trkpt lat="44.457743167877197" lon="11.420674324035645">
        <ele>71</ele>
        <time>2004-07-29T19:22:28Z</time>
      </trkpt>
      <trkpt lat="44.458751678466797" lon="11.419901764020324">
        <ele>71</ele>
        <time>2004-07-29T19:22:47Z</time>
      </trkpt>
      <trkpt lat="44.459888935089111" lon="11.418979167938232">
        <ele>70</ele>
        <time>2004-07-29T19:23:07Z</time>
      </trkpt>
      <trkpt lat="44.460361003875732" lon="11.418592929840088">
        <ele>70</ele>
        <time>2004-07-29T19:23:14Z</time>
      </trkpt>
      <trkpt lat="44.460468292236328" lon="11.418421268463135">
        <ele>70</ele>
        <time>2004-07-29T19:23:16Z</time>
      </trkpt>
      <trkpt lat="44.461519718170166" lon="11.416425704956055">
        <ele>68</ele>
        <time>2004-07-29T19:23:37Z</time>
      </trkpt>
      <trkpt lat="44.462592601776123" lon="11.414773464202881">
        <ele>65</ele>
        <time>2004-07-29T19:23:56Z</time>
      </trkpt>
      <trkpt lat="44.463257789611816" lon="11.414172565564513">
        <ele>66</ele>
        <time>2004-07-29T19:24:07Z</time>
      </trkpt>
      <trkpt lat="44.463450908660889" lon="11.413915241137147">
        <ele>65</ele>
        <time>2004-07-29T19:24:12Z</time>
      </trkpt>
      <trkpt lat="44.463837062940001" lon="11.412906562909484">
        <ele>65</ele>
        <time>2004-07-29T19:24:25Z</time>
      </trkpt>
      <trkpt lat="44.464352130889893" lon="11.41155481338501">
        <ele>65</ele>
        <time>2004-07-29T19:24:41Z</time>
      </trkpt>
      <trkpt lat="44.464738368988037" lon="11.410632133483887">
        <ele>63</ele>
        <time>2004-07-29T19:24:53Z</time>
      </trkpt>
      <trkpt lat="44.464609622955322" lon="11.410417640581727">
        <ele>63</ele>
        <time>2004-07-29T19:24:57Z</time>
      </trkpt>
      <trkpt lat="44.463601112365723" lon="11.409516334533691">
        <ele>65</ele>
        <time>2004-07-29T19:25:15Z</time>
      </trkpt>
      <trkpt lat="44.462978839874268" lon="11.408936977386475">
        <ele>65</ele>
        <time>2004-07-29T19:25:27Z</time>
      </trkpt>
      <trkpt lat="44.463000297546387" lon="11.408722400665283">
        <ele>66</ele>
        <time>2004-07-29T19:25:31Z</time>
      </trkpt>
      <trkpt lat="44.463064670562744" lon="11.408507823944092">
        <ele>66</ele>
        <time>2004-07-29T19:25:34Z</time>
      </trkpt>
      <trkpt lat="44.46317195892334" lon="11.408336162567139">
        <ele>67</ele>
        <time>2004-07-29T19:25:37Z</time>
      </trkpt>
      <trkpt lat="44.463300704956055" lon="11.408078670501709">
        <ele>67</ele>
        <time>2004-07-29T19:25:41Z</time>
      </trkpt>
      <trkpt lat="44.463794231414795" lon="11.406941413879395">
        <ele>68</ele>
        <time>2004-07-29T19:25:58Z</time>
      </trkpt>
      <trkpt lat="44.464073181152344" lon="11.406383514404297">
        <ele>69</ele>
        <time>2004-07-29T19:26:07Z</time>
      </trkpt>
      <trkpt lat="44.46415901184082" lon="11.406190395355225">
        <ele>68</ele>
        <time>2004-07-29T19:26:11Z</time>
      </trkpt>
      <trkpt lat="44.464137637987733" lon="11.406104564666748">
        <ele>68</ele>
        <time>2004-07-29T19:26:15Z</time>
      </trkpt>
      <trkpt lat="44.464073181152344" lon="11.406040191650391">
        <ele>68</ele>
        <time>2004-07-29T19:26:18Z</time>
      </trkpt>
      <trkpt lat="44.463944435119629" lon="11.405889987945557">
        <ele>69</ele>
        <time>2004-07-29T19:26:22Z</time>
      </trkpt>
      <trkpt lat="44.463601112365723" lon="11.405525207519531">
        <ele>71</ele>
        <time>2004-07-29T19:26:30Z</time>
      </trkpt>
      <trkpt lat="44.463493824005127" lon="11.405074596405029">
        <ele>72</ele>
        <time>2004-07-29T19:26:37Z</time>
      </trkpt>
      <trkpt lat="44.463493824005127" lon="11.404967308044434">
        <ele>72</ele>
        <time>2004-07-29T19:26:39Z</time>
      </trkpt>
      <trkpt lat="44.463536739349365" lon="11.404495239257813">
        <ele>74</ele>
        <time>2004-07-29T19:26:47Z</time>
      </trkpt>
      <trkpt lat="44.463450908660889" lon="11.404280662536621">
        <ele>74</ele>
        <time>2004-07-29T19:26:51Z</time>
      </trkpt>
      <trkpt lat="44.463064670562744" lon="11.403658390045166">
        <ele>76</ele>
        <time>2004-07-29T19:27:05Z</time>
      </trkpt>
      <trkpt lat="44.463000297546387" lon="11.40355110168457">
        <ele>76</ele>
        <time>2004-07-29T19:27:07Z</time>
      </trkpt>
      <trkpt lat="44.462807178497314" lon="11.403379440307617">
        <ele>76</ele>
        <time>2004-07-29T19:27:12Z</time>
      </trkpt>
      <trkpt lat="44.462785720825195" lon="11.403014659881592">
        <ele>75</ele>
        <time>2004-07-29T19:27:18Z</time>
      </trkpt>
      <trkpt lat="44.463386535644531" lon="11.401705741882324">
        <ele>75</ele>
        <time>2004-07-29T19:27:36Z</time>
      </trkpt>
      <trkpt lat="44.464073181152344" lon="11.400697231292725">
        <ele>77</ele>
        <time>2004-07-29T19:27:54Z</time>
      </trkpt>
      <trkpt lat="44.464631080627441" lon="11.399667263031006">
        <ele>79</ele>
        <time>2004-07-29T19:28:12Z</time>
      </trkpt>
      <trkpt lat="44.465360641479492" lon="11.398444175720215">
        <ele>77</ele>
        <time>2004-07-29T19:28:30Z</time>
      </trkpt>
    </trkseg>
  </trk>

</gpx>
